<?xml version="1.0" encoding="UTF-8" standalone="no" ?>
<gpx xmlns="http://www.topografix.com/GPX/1/1" xmlns:xsi="http://www.w3.org/2001/XMLSchema-instance" xsi:schemaLocation="http://www.topografix.com/GPX/1/1 http://www.topografix.com/GPX/1/1/gpx.xsd" version="1.1" creator="VisuGPX - https://www.visugpx.com">
  <metadata>
    <name>Beaupreau montreveau leppo</name>
  </metadata>
  <trk>
    <name><![CDATA[Beaupréau Montrevault Forêt Leppo-21804235]]></name>
    <trkseg>
      <trkpt lat="47.19649" lon="-0.97668">
        <ele>76</ele>
        <time>2025-07-02T19:25:42Z</time>
      </trkpt>
      <trkpt lat="47.19647" lon="-0.9768">
        <ele>76</ele>
        <time>2025-07-02T19:25:53Z</time>
      </trkpt>
      <trkpt lat="47.19649" lon="-0.97705">
        <ele>75</ele>
        <time>2025-07-02T19:26:16Z</time>
      </trkpt>
      <trkpt lat="47.19682" lon="-0.97701">
        <ele>77</ele>
        <time>2025-07-02T19:27:00Z</time>
      </trkpt>
      <trkpt lat="47.19683" lon="-0.97728">
        <ele>77</ele>
        <time>2025-07-02T19:27:25Z</time>
      </trkpt>
      <trkpt lat="47.19693" lon="-0.97749">
        <ele>77</ele>
        <time>2025-07-02T19:27:48Z</time>
      </trkpt>
      <trkpt lat="47.1971" lon="-0.97763">
        <ele>76</ele>
        <time>2025-07-02T19:28:14Z</time>
      </trkpt>
      <trkpt lat="47.19726" lon="-0.97785">
        <ele>75</ele>
        <time>2025-07-02T19:28:43Z</time>
      </trkpt>
      <trkpt lat="47.19748" lon="-0.97793">
        <ele>75</ele>
        <time>2025-07-02T19:29:13Z</time>
      </trkpt>
      <trkpt lat="47.19765" lon="-0.97802">
        <ele>75</ele>
        <time>2025-07-02T19:29:38Z</time>
      </trkpt>
      <trkpt lat="47.1979" lon="-0.97819">
        <ele>75</ele>
        <time>2025-07-02T19:30:14Z</time>
      </trkpt>
      <trkpt lat="47.19803" lon="-0.97825">
        <ele>76</ele>
        <time>2025-07-02T19:30:32Z</time>
      </trkpt>
      <trkpt lat="47.19815" lon="-0.97826">
        <ele>76</ele>
        <time>2025-07-02T19:30:49Z</time>
      </trkpt>
      <trkpt lat="47.19824" lon="-0.97827">
        <ele>77</ele>
        <time>2025-07-02T19:31:01Z</time>
      </trkpt>
      <trkpt lat="47.19835" lon="-0.97824">
        <ele>78</ele>
        <time>2025-07-02T19:31:15Z</time>
      </trkpt>
      <trkpt lat="47.19842" lon="-0.97822">
        <ele>79</ele>
        <time>2025-07-02T19:31:25Z</time>
      </trkpt>
      <trkpt lat="47.19857" lon="-0.97813">
        <ele>81</ele>
        <time>2025-07-02T19:31:47Z</time>
      </trkpt>
      <trkpt lat="47.19874" lon="-0.978">
        <ele>83</ele>
        <time>2025-07-02T19:32:12Z</time>
      </trkpt>
      <trkpt lat="47.19884" lon="-0.97785">
        <ele>84</ele>
        <time>2025-07-02T19:32:31Z</time>
      </trkpt>
      <trkpt lat="47.19892" lon="-0.97764">
        <ele>84</ele>
        <time>2025-07-02T19:32:53Z</time>
      </trkpt>
      <trkpt lat="47.19897" lon="-0.97755">
        <ele>84</ele>
        <time>2025-07-02T19:33:04Z</time>
      </trkpt>
      <trkpt lat="47.19906" lon="-0.97747">
        <ele>85</ele>
        <time>2025-07-02T19:33:18Z</time>
      </trkpt>
      <trkpt lat="47.1993" lon="-0.97739">
        <ele>86</ele>
        <time>2025-07-02T19:33:50Z</time>
      </trkpt>
      <trkpt lat="47.19936" lon="-0.97734">
        <ele>86</ele>
        <time>2025-07-02T19:34:00Z</time>
      </trkpt>
      <trkpt lat="47.19941" lon="-0.97725">
        <ele>87</ele>
        <time>2025-07-02T19:34:10Z</time>
      </trkpt>
      <trkpt lat="47.1995" lon="-0.97702">
        <ele>87</ele>
        <time>2025-07-02T19:34:34Z</time>
      </trkpt>
      <trkpt lat="47.19957" lon="-0.97694">
        <ele>87</ele>
        <time>2025-07-02T19:34:46Z</time>
      </trkpt>
      <trkpt lat="47.19983" lon="-0.97679">
        <ele>88</ele>
        <time>2025-07-02T19:35:23Z</time>
      </trkpt>
      <trkpt lat="47.19993" lon="-0.97667">
        <ele>89</ele>
        <time>2025-07-02T19:35:41Z</time>
      </trkpt>
      <trkpt lat="47.2001" lon="-0.97638">
        <ele>90</ele>
        <time>2025-07-02T19:36:15Z</time>
      </trkpt>
      <trkpt lat="47.20018" lon="-0.97631">
        <ele>91</ele>
        <time>2025-07-02T19:36:28Z</time>
      </trkpt>
      <trkpt lat="47.20026" lon="-0.97626">
        <ele>91</ele>
        <time>2025-07-02T19:36:39Z</time>
      </trkpt>
      <trkpt lat="47.20036" lon="-0.97623">
        <ele>91</ele>
        <time>2025-07-02T19:36:53Z</time>
      </trkpt>
      <trkpt lat="47.20039" lon="-0.97623">
        <ele>91</ele>
        <time>2025-07-02T19:36:57Z</time>
      </trkpt>
      <trkpt lat="47.20046" lon="-0.97627">
        <ele>91</ele>
        <time>2025-07-02T19:37:07Z</time>
      </trkpt>
      <trkpt lat="47.20049" lon="-0.97631">
        <ele>91</ele>
        <time>2025-07-02T19:37:12Z</time>
      </trkpt>
      <trkpt lat="47.20052" lon="-0.97628">
        <ele>91</ele>
        <time>2025-07-02T19:37:17Z</time>
      </trkpt>
      <trkpt lat="47.2006" lon="-0.97625">
        <ele>92</ele>
        <time>2025-07-02T19:37:28Z</time>
      </trkpt>
      <trkpt lat="47.20072" lon="-0.97628">
        <ele>92</ele>
        <time>2025-07-02T19:37:45Z</time>
      </trkpt>
      <trkpt lat="47.20169" lon="-0.97657">
        <ele>95</ele>
        <time>2025-07-02T19:39:57Z</time>
      </trkpt>
      <trkpt lat="47.2018" lon="-0.97663">
        <ele>95</ele>
        <time>2025-07-02T19:40:12Z</time>
      </trkpt>
      <trkpt lat="47.20195" lon="-0.97679">
        <ele>96</ele>
        <time>2025-07-02T19:40:37Z</time>
      </trkpt>
      <trkpt lat="47.20205" lon="-0.97699">
        <ele>96</ele>
        <time>2025-07-02T19:40:59Z</time>
      </trkpt>
      <trkpt lat="47.20224" lon="-0.97678">
        <ele>96</ele>
        <time>2025-07-02T19:41:31Z</time>
      </trkpt>
      <trkpt lat="47.20233" lon="-0.97667">
        <ele>97</ele>
        <time>2025-07-02T19:41:47Z</time>
      </trkpt>
      <trkpt lat="47.20242" lon="-0.97666">
        <ele>97</ele>
        <time>2025-07-02T19:41:59Z</time>
      </trkpt>
      <trkpt lat="47.20252" lon="-0.97677">
        <ele>97</ele>
        <time>2025-07-02T19:42:16Z</time>
      </trkpt>
      <trkpt lat="47.20305" lon="-0.97692">
        <ele>99</ele>
        <time>2025-07-02T19:43:28Z</time>
      </trkpt>
      <trkpt lat="47.20315" lon="-0.97694">
        <ele>99</ele>
        <time>2025-07-02T19:43:41Z</time>
      </trkpt>
      <trkpt lat="47.20315" lon="-0.97704">
        <ele>99</ele>
        <time>2025-07-02T19:43:50Z</time>
      </trkpt>
      <trkpt lat="47.20318" lon="-0.97711">
        <ele>99</ele>
        <time>2025-07-02T19:43:58Z</time>
      </trkpt>
      <trkpt lat="47.20324" lon="-0.97718">
        <ele>99</ele>
        <time>2025-07-02T19:44:08Z</time>
      </trkpt>
      <trkpt lat="47.2033" lon="-0.9772">
        <ele>99</ele>
        <time>2025-07-02T19:44:16Z</time>
      </trkpt>
      <trkpt lat="47.20336" lon="-0.97718">
        <ele>99</ele>
        <time>2025-07-02T19:44:24Z</time>
      </trkpt>
      <trkpt lat="47.20342" lon="-0.97712">
        <ele>99</ele>
        <time>2025-07-02T19:44:34Z</time>
      </trkpt>
      <trkpt lat="47.20345" lon="-0.97701">
        <ele>99</ele>
        <time>2025-07-02T19:44:45Z</time>
      </trkpt>
      <trkpt lat="47.20392" lon="-0.97714">
        <ele>99</ele>
        <time>2025-07-02T19:45:48Z</time>
      </trkpt>
      <trkpt lat="47.20416" lon="-0.97725">
        <ele>99</ele>
        <time>2025-07-02T19:46:22Z</time>
      </trkpt>
      <trkpt lat="47.20431" lon="-0.97735">
        <ele>99</ele>
        <time>2025-07-02T19:46:44Z</time>
      </trkpt>
      <trkpt lat="47.20473" lon="-0.97772">
        <ele>98</ele>
        <time>2025-07-02T19:47:49Z</time>
      </trkpt>
      <trkpt lat="47.20482" lon="-0.97779">
        <ele>98</ele>
        <time>2025-07-02T19:48:03Z</time>
      </trkpt>
      <trkpt lat="47.20482" lon="-0.97781">
        <ele>98</ele>
        <time>2025-07-02T19:48:05Z</time>
      </trkpt>
      <trkpt lat="47.20482" lon="-0.97787">
        <ele>98</ele>
        <time>2025-07-02T19:48:10Z</time>
      </trkpt>
      <trkpt lat="47.20485" lon="-0.97791">
        <ele>98</ele>
        <time>2025-07-02T19:48:16Z</time>
      </trkpt>
      <trkpt lat="47.20486" lon="-0.97792">
        <ele>98</ele>
        <time>2025-07-02T19:48:17Z</time>
      </trkpt>
      <trkpt lat="47.2049" lon="-0.97792">
        <ele>98</ele>
        <time>2025-07-02T19:48:22Z</time>
      </trkpt>
      <trkpt lat="47.20493" lon="-0.97789">
        <ele>98</ele>
        <time>2025-07-02T19:48:27Z</time>
      </trkpt>
      <trkpt lat="47.20499" lon="-0.97796">
        <ele>98</ele>
        <time>2025-07-02T19:48:38Z</time>
      </trkpt>
      <trkpt lat="47.20504" lon="-0.97797">
        <ele>99</ele>
        <time>2025-07-02T19:48:44Z</time>
      </trkpt>
      <trkpt lat="47.20515" lon="-0.97797">
        <ele>99</ele>
        <time>2025-07-02T19:48:59Z</time>
      </trkpt>
      <trkpt lat="47.20523" lon="-0.97797">
        <ele>99</ele>
        <time>2025-07-02T19:49:10Z</time>
      </trkpt>
      <trkpt lat="47.2053" lon="-0.97794">
        <ele>99</ele>
        <time>2025-07-02T19:49:19Z</time>
      </trkpt>
      <trkpt lat="47.20538" lon="-0.9779">
        <ele>99</ele>
        <time>2025-07-02T19:49:31Z</time>
      </trkpt>
      <trkpt lat="47.20547" lon="-0.97782">
        <ele>100</ele>
        <time>2025-07-02T19:49:45Z</time>
      </trkpt>
      <trkpt lat="47.20557" lon="-0.9777">
        <ele>100</ele>
        <time>2025-07-02T19:50:02Z</time>
      </trkpt>
      <trkpt lat="47.206" lon="-0.9781">
        <ele>101</ele>
        <time>2025-07-02T19:51:10Z</time>
      </trkpt>
      <trkpt lat="47.20606" lon="-0.97822">
        <ele>101</ele>
        <time>2025-07-02T19:51:23Z</time>
      </trkpt>
      <trkpt lat="47.20615" lon="-0.97858">
        <ele>101</ele>
        <time>2025-07-02T19:51:58Z</time>
      </trkpt>
      <trkpt lat="47.20622" lon="-0.97894">
        <ele>101</ele>
        <time>2025-07-02T19:52:32Z</time>
      </trkpt>
      <trkpt lat="47.20625" lon="-0.97903">
        <ele>101</ele>
        <time>2025-07-02T19:52:41Z</time>
      </trkpt>
      <trkpt lat="47.20629" lon="-0.97909">
        <ele>101</ele>
        <time>2025-07-02T19:52:49Z</time>
      </trkpt>
      <trkpt lat="47.20634" lon="-0.97913">
        <ele>101</ele>
        <time>2025-07-02T19:52:56Z</time>
      </trkpt>
      <trkpt lat="47.20639" lon="-0.97916">
        <ele>102</ele>
        <time>2025-07-02T19:53:03Z</time>
      </trkpt>
      <trkpt lat="47.20645" lon="-0.97917">
        <ele>102</ele>
        <time>2025-07-02T19:53:12Z</time>
      </trkpt>
      <trkpt lat="47.2065" lon="-0.97915">
        <ele>102</ele>
        <time>2025-07-02T19:53:18Z</time>
      </trkpt>
      <trkpt lat="47.20693" lon="-0.97883">
        <ele>102</ele>
        <time>2025-07-02T19:54:23Z</time>
      </trkpt>
      <trkpt lat="47.20739" lon="-0.97845">
        <ele>102</ele>
        <time>2025-07-02T19:55:33Z</time>
      </trkpt>
      <trkpt lat="47.20761" lon="-0.97941">
        <ele>102</ele>
        <time>2025-07-02T19:57:05Z</time>
      </trkpt>
      <trkpt lat="47.20799" lon="-0.97917">
        <ele>103</ele>
        <time>2025-07-02T19:58:00Z</time>
      </trkpt>
      <trkpt lat="47.20869" lon="-0.97876">
        <ele>102</ele>
        <time>2025-07-02T19:59:41Z</time>
      </trkpt>
      <trkpt lat="47.20869" lon="-0.97869">
        <ele>101</ele>
        <time>2025-07-02T19:59:47Z</time>
      </trkpt>
      <trkpt lat="47.2087" lon="-0.97866">
        <ele>101</ele>
        <time>2025-07-02T19:59:50Z</time>
      </trkpt>
      <trkpt lat="47.20872" lon="-0.97863">
        <ele>101</ele>
        <time>2025-07-02T19:59:54Z</time>
      </trkpt>
      <trkpt lat="47.2088" lon="-0.9787">
        <ele>101</ele>
        <time>2025-07-02T20:00:06Z</time>
      </trkpt>
      <trkpt lat="47.20872" lon="-0.97863">
        <ele>101</ele>
        <time>2025-07-02T20:00:19Z</time>
      </trkpt>
      <trkpt lat="47.2087" lon="-0.97866">
        <ele>101</ele>
        <time>2025-07-02T20:00:23Z</time>
      </trkpt>
      <trkpt lat="47.20869" lon="-0.97869">
        <ele>101</ele>
        <time>2025-07-02T20:00:26Z</time>
      </trkpt>
      <trkpt lat="47.20869" lon="-0.97876">
        <ele>102</ele>
        <time>2025-07-02T20:00:32Z</time>
      </trkpt>
      <trkpt lat="47.20878" lon="-0.97875">
        <ele>101</ele>
        <time>2025-07-02T20:00:44Z</time>
      </trkpt>
      <trkpt lat="47.20884" lon="-0.97881">
        <ele>102</ele>
        <time>2025-07-02T20:00:54Z</time>
      </trkpt>
      <trkpt lat="47.20888" lon="-0.97894">
        <ele>102</ele>
        <time>2025-07-02T20:01:07Z</time>
      </trkpt>
      <trkpt lat="47.2089" lon="-0.97914">
        <ele>102</ele>
        <time>2025-07-02T20:01:25Z</time>
      </trkpt>
      <trkpt lat="47.2089" lon="-0.97927">
        <ele>103</ele>
        <time>2025-07-02T20:01:37Z</time>
      </trkpt>
      <trkpt lat="47.20892" lon="-0.97965">
        <ele>103</ele>
        <time>2025-07-02T20:02:11Z</time>
      </trkpt>
      <trkpt lat="47.20895" lon="-0.97984">
        <ele>104</ele>
        <time>2025-07-02T20:02:29Z</time>
      </trkpt>
      <trkpt lat="47.20909" lon="-0.98009">
        <ele>104</ele>
        <time>2025-07-02T20:02:58Z</time>
      </trkpt>
      <trkpt lat="47.20908" lon="-0.98012">
        <ele>104</ele>
        <time>2025-07-02T20:03:01Z</time>
      </trkpt>
      <trkpt lat="47.20906" lon="-0.98018">
        <ele>104</ele>
        <time>2025-07-02T20:03:07Z</time>
      </trkpt>
      <trkpt lat="47.20908" lon="-0.98024">
        <ele>104</ele>
        <time>2025-07-02T20:03:13Z</time>
      </trkpt>
      <trkpt lat="47.20909" lon="-0.98027">
        <ele>104</ele>
        <time>2025-07-02T20:03:16Z</time>
      </trkpt>
      <trkpt lat="47.20905" lon="-0.98034">
        <ele>104</ele>
        <time>2025-07-02T20:03:25Z</time>
      </trkpt>
      <trkpt lat="47.20899" lon="-0.98053">
        <ele>105</ele>
        <time>2025-07-02T20:03:44Z</time>
      </trkpt>
      <trkpt lat="47.20874" lon="-0.98065">
        <ele>104</ele>
        <time>2025-07-02T20:04:19Z</time>
      </trkpt>
      <trkpt lat="47.20874" lon="-0.98069">
        <ele>104</ele>
        <time>2025-07-02T20:04:22Z</time>
      </trkpt>
      <trkpt lat="47.20885" lon="-0.98109">
        <ele>105</ele>
        <time>2025-07-02T20:05:02Z</time>
      </trkpt>
      <trkpt lat="47.20896" lon="-0.98162">
        <ele>105</ele>
        <time>2025-07-02T20:05:52Z</time>
      </trkpt>
      <trkpt lat="47.20892" lon="-0.98178">
        <ele>105</ele>
        <time>2025-07-02T20:06:07Z</time>
      </trkpt>
      <trkpt lat="47.20888" lon="-0.98195">
        <ele>105</ele>
        <time>2025-07-02T20:06:24Z</time>
      </trkpt>
      <trkpt lat="47.20893" lon="-0.98215">
        <ele>105</ele>
        <time>2025-07-02T20:06:43Z</time>
      </trkpt>
      <trkpt lat="47.20897" lon="-0.98236">
        <ele>105</ele>
        <time>2025-07-02T20:07:03Z</time>
      </trkpt>
      <trkpt lat="47.20893" lon="-0.98238">
        <ele>105</ele>
        <time>2025-07-02T20:07:08Z</time>
      </trkpt>
      <trkpt lat="47.20893" lon="-0.9824">
        <ele>105</ele>
        <time>2025-07-02T20:07:10Z</time>
      </trkpt>
      <trkpt lat="47.20894" lon="-0.98243">
        <ele>105</ele>
        <time>2025-07-02T20:07:13Z</time>
      </trkpt>
      <trkpt lat="47.20895" lon="-0.98247">
        <ele>105</ele>
        <time>2025-07-02T20:07:17Z</time>
      </trkpt>
      <trkpt lat="47.20916" lon="-0.98347">
        <ele>105</ele>
        <time>2025-07-02T20:08:52Z</time>
      </trkpt>
      <trkpt lat="47.20916" lon="-0.98352">
        <ele>105</ele>
        <time>2025-07-02T20:08:56Z</time>
      </trkpt>
      <trkpt lat="47.20914" lon="-0.98357">
        <ele>105</ele>
        <time>2025-07-02T20:09:02Z</time>
      </trkpt>
      <trkpt lat="47.20879" lon="-0.98394">
        <ele>104</ele>
        <time>2025-07-02T20:09:59Z</time>
      </trkpt>
      <trkpt lat="47.20879" lon="-0.98395">
        <ele>104</ele>
        <time>2025-07-02T20:10:00Z</time>
      </trkpt>
      <trkpt lat="47.20881" lon="-0.98398">
        <ele>104</ele>
        <time>2025-07-02T20:10:04Z</time>
      </trkpt>
      <trkpt lat="47.20878" lon="-0.98402">
        <ele>104</ele>
        <time>2025-07-02T20:10:09Z</time>
      </trkpt>
      <trkpt lat="47.20868" lon="-0.98412">
        <ele>103</ele>
        <time>2025-07-02T20:10:25Z</time>
      </trkpt>
      <trkpt lat="47.20869" lon="-0.98416">
        <ele>103</ele>
        <time>2025-07-02T20:10:29Z</time>
      </trkpt>
      <trkpt lat="47.20868" lon="-0.98425">
        <ele>103</ele>
        <time>2025-07-02T20:10:38Z</time>
      </trkpt>
      <trkpt lat="47.20867" lon="-0.98428">
        <ele>103</ele>
        <time>2025-07-02T20:10:41Z</time>
      </trkpt>
      <trkpt lat="47.20866" lon="-0.98429">
        <ele>103</ele>
        <time>2025-07-02T20:10:42Z</time>
      </trkpt>
      <trkpt lat="47.20868" lon="-0.98437">
        <ele>103</ele>
        <time>2025-07-02T20:10:50Z</time>
      </trkpt>
      <trkpt lat="47.20881" lon="-0.98495">
        <ele>103</ele>
        <time>2025-07-02T20:11:45Z</time>
      </trkpt>
      <trkpt lat="47.20886" lon="-0.98503">
        <ele>103</ele>
        <time>2025-07-02T20:11:55Z</time>
      </trkpt>
      <trkpt lat="47.20899" lon="-0.98513">
        <ele>103</ele>
        <time>2025-07-02T20:12:15Z</time>
      </trkpt>
      <trkpt lat="47.20903" lon="-0.98519">
        <ele>103</ele>
        <time>2025-07-02T20:12:22Z</time>
      </trkpt>
      <trkpt lat="47.20909" lon="-0.98548">
        <ele>103</ele>
        <time>2025-07-02T20:12:50Z</time>
      </trkpt>
      <trkpt lat="47.20923" lon="-0.98613">
        <ele>104</ele>
        <time>2025-07-02T20:13:52Z</time>
      </trkpt>
      <trkpt lat="47.20925" lon="-0.98623">
        <ele>104</ele>
        <time>2025-07-02T20:14:01Z</time>
      </trkpt>
      <trkpt lat="47.20936" lon="-0.98654">
        <ele>104</ele>
        <time>2025-07-02T20:14:33Z</time>
      </trkpt>
      <trkpt lat="47.20962" lon="-0.98716">
        <ele>105</ele>
        <time>2025-07-02T20:15:39Z</time>
      </trkpt>
      <trkpt lat="47.2098" lon="-0.98759">
        <ele>106</ele>
        <time>2025-07-02T20:16:25Z</time>
      </trkpt>
      <trkpt lat="47.20998" lon="-0.98798">
        <ele>107</ele>
        <time>2025-07-02T20:17:07Z</time>
      </trkpt>
      <trkpt lat="47.21008" lon="-0.98815">
        <ele>108</ele>
        <time>2025-07-02T20:17:28Z</time>
      </trkpt>
      <trkpt lat="47.21015" lon="-0.98825">
        <ele>108</ele>
        <time>2025-07-02T20:17:41Z</time>
      </trkpt>
      <trkpt lat="47.21027" lon="-0.98838">
        <ele>108</ele>
        <time>2025-07-02T20:18:01Z</time>
      </trkpt>
      <trkpt lat="47.21077" lon="-0.98883">
        <ele>109</ele>
        <time>2025-07-02T20:19:19Z</time>
      </trkpt>
      <trkpt lat="47.21088" lon="-0.98896">
        <ele>110</ele>
        <time>2025-07-02T20:19:38Z</time>
      </trkpt>
      <trkpt lat="47.21094" lon="-0.98906">
        <ele>110</ele>
        <time>2025-07-02T20:19:50Z</time>
      </trkpt>
      <trkpt lat="47.21131" lon="-0.98854">
        <ele>108</ele>
        <time>2025-07-02T20:20:58Z</time>
      </trkpt>
      <trkpt lat="47.21152" lon="-0.9884">
        <ele>108</ele>
        <time>2025-07-02T20:21:29Z</time>
      </trkpt>
      <trkpt lat="47.2116" lon="-0.98824">
        <ele>108</ele>
        <time>2025-07-02T20:21:47Z</time>
      </trkpt>
      <trkpt lat="47.21189" lon="-0.98799">
        <ele>107</ele>
        <time>2025-07-02T20:22:32Z</time>
      </trkpt>
      <trkpt lat="47.21208" lon="-0.98773">
        <ele>106</ele>
        <time>2025-07-02T20:23:06Z</time>
      </trkpt>
      <trkpt lat="47.21227" lon="-0.98751">
        <ele>106</ele>
        <time>2025-07-02T20:23:39Z</time>
      </trkpt>
      <trkpt lat="47.21232" lon="-0.98744">
        <ele>105</ele>
        <time>2025-07-02T20:23:48Z</time>
      </trkpt>
      <trkpt lat="47.21239" lon="-0.98744">
        <ele>105</ele>
        <time>2025-07-02T20:23:57Z</time>
      </trkpt>
      <trkpt lat="47.21247" lon="-0.98752">
        <ele>105</ele>
        <time>2025-07-02T20:24:10Z</time>
      </trkpt>
      <trkpt lat="47.21257" lon="-0.9877">
        <ele>106</ele>
        <time>2025-07-02T20:24:31Z</time>
      </trkpt>
      <trkpt lat="47.21259" lon="-0.98783">
        <ele>106</ele>
        <time>2025-07-02T20:24:43Z</time>
      </trkpt>
      <trkpt lat="47.21274" lon="-0.98788">
        <ele>106</ele>
        <time>2025-07-02T20:25:04Z</time>
      </trkpt>
      <trkpt lat="47.21283" lon="-0.98798">
        <ele>106</ele>
        <time>2025-07-02T20:25:19Z</time>
      </trkpt>
      <trkpt lat="47.21293" lon="-0.98821">
        <ele>107</ele>
        <time>2025-07-02T20:25:44Z</time>
      </trkpt>
      <trkpt lat="47.21298" lon="-0.98848">
        <ele>107</ele>
        <time>2025-07-02T20:26:09Z</time>
      </trkpt>
      <trkpt lat="47.21311" lon="-0.9886">
        <ele>107</ele>
        <time>2025-07-02T20:26:29Z</time>
      </trkpt>
      <trkpt lat="47.21321" lon="-0.98873">
        <ele>107</ele>
        <time>2025-07-02T20:26:47Z</time>
      </trkpt>
      <trkpt lat="47.2133" lon="-0.98891">
        <ele>107</ele>
        <time>2025-07-02T20:27:07Z</time>
      </trkpt>
      <trkpt lat="47.21337" lon="-0.98911">
        <ele>107</ele>
        <time>2025-07-02T20:27:28Z</time>
      </trkpt>
      <trkpt lat="47.21338" lon="-0.98926">
        <ele>107</ele>
        <time>2025-07-02T20:27:41Z</time>
      </trkpt>
      <trkpt lat="47.21336" lon="-0.98945">
        <ele>107</ele>
        <time>2025-07-02T20:27:59Z</time>
      </trkpt>
      <trkpt lat="47.21355" lon="-0.98966">
        <ele>106</ele>
        <time>2025-07-02T20:28:31Z</time>
      </trkpt>
      <trkpt lat="47.21368" lon="-0.98997">
        <ele>106</ele>
        <time>2025-07-02T20:29:04Z</time>
      </trkpt>
      <trkpt lat="47.21382" lon="-0.99023">
        <ele>105</ele>
        <time>2025-07-02T20:29:34Z</time>
      </trkpt>
      <trkpt lat="47.21395" lon="-0.99034">
        <ele>105</ele>
        <time>2025-07-02T20:29:54Z</time>
      </trkpt>
      <trkpt lat="47.21406" lon="-0.99038">
        <ele>104</ele>
        <time>2025-07-02T20:30:09Z</time>
      </trkpt>
      <trkpt lat="47.21428" lon="-0.99081">
        <ele>104</ele>
        <time>2025-07-02T20:30:58Z</time>
      </trkpt>
      <trkpt lat="47.21433" lon="-0.99098">
        <ele>105</ele>
        <time>2025-07-02T20:31:14Z</time>
      </trkpt>
      <trkpt lat="47.21434" lon="-0.99129">
        <ele>106</ele>
        <time>2025-07-02T20:31:43Z</time>
      </trkpt>
      <trkpt lat="47.21445" lon="-0.99132">
        <ele>106</ele>
        <time>2025-07-02T20:31:58Z</time>
      </trkpt>
      <trkpt lat="47.21481" lon="-0.99184">
        <ele>105</ele>
        <time>2025-07-02T20:33:05Z</time>
      </trkpt>
      <trkpt lat="47.2149" lon="-0.99209">
        <ele>105</ele>
        <time>2025-07-02T20:33:30Z</time>
      </trkpt>
      <trkpt lat="47.21506" lon="-0.99233">
        <ele>104</ele>
        <time>2025-07-02T20:34:01Z</time>
      </trkpt>
      <trkpt lat="47.2153" lon="-0.99284">
        <ele>104</ele>
        <time>2025-07-02T20:34:57Z</time>
      </trkpt>
      <trkpt lat="47.21531" lon="-0.99314">
        <ele>105</ele>
        <time>2025-07-02T20:35:24Z</time>
      </trkpt>
      <trkpt lat="47.2154" lon="-0.99373">
        <ele>106</ele>
        <time>2025-07-02T20:36:19Z</time>
      </trkpt>
      <trkpt lat="47.21598" lon="-0.99412">
        <ele>106</ele>
        <time>2025-07-02T20:37:44Z</time>
      </trkpt>
      <trkpt lat="47.21623" lon="-0.99458">
        <ele>106</ele>
        <time>2025-07-02T20:38:38Z</time>
      </trkpt>
      <trkpt lat="47.21643" lon="-0.99504">
        <ele>105</ele>
        <time>2025-07-02T20:39:27Z</time>
      </trkpt>
      <trkpt lat="47.21658" lon="-0.99543">
        <ele>106</ele>
        <time>2025-07-02T20:40:08Z</time>
      </trkpt>
      <trkpt lat="47.2166" lon="-0.99562">
        <ele>106</ele>
        <time>2025-07-02T20:40:25Z</time>
      </trkpt>
      <trkpt lat="47.21659" lon="-0.99575">
        <ele>107</ele>
        <time>2025-07-02T20:40:37Z</time>
      </trkpt>
      <trkpt lat="47.21656" lon="-0.99588">
        <ele>107</ele>
        <time>2025-07-02T20:40:50Z</time>
      </trkpt>
      <trkpt lat="47.21642" lon="-0.9961">
        <ele>107</ele>
        <time>2025-07-02T20:41:17Z</time>
      </trkpt>
      <trkpt lat="47.21592" lon="-0.99662">
        <ele>109</ele>
        <time>2025-07-02T20:42:39Z</time>
      </trkpt>
      <trkpt lat="47.216" lon="-0.99691">
        <ele>109</ele>
        <time>2025-07-02T20:43:07Z</time>
      </trkpt>
      <trkpt lat="47.21593" lon="-0.99692">
        <ele>109</ele>
        <time>2025-07-02T20:43:16Z</time>
      </trkpt>
      <trkpt lat="47.216" lon="-0.99691">
        <ele>109</ele>
        <time>2025-07-02T20:43:26Z</time>
      </trkpt>
      <trkpt lat="47.21666" lon="-0.99678">
        <ele>106</ele>
        <time>2025-07-02T20:44:55Z</time>
      </trkpt>
      <trkpt lat="47.21679" lon="-0.99678">
        <ele>106</ele>
        <time>2025-07-02T20:45:12Z</time>
      </trkpt>
      <trkpt lat="47.21701" lon="-0.99682">
        <ele>106</ele>
        <time>2025-07-02T20:45:42Z</time>
      </trkpt>
      <trkpt lat="47.21722" lon="-0.9968">
        <ele>106</ele>
        <time>2025-07-02T20:46:10Z</time>
      </trkpt>
      <trkpt lat="47.21734" lon="-0.99682">
        <ele>106</ele>
        <time>2025-07-02T20:46:26Z</time>
      </trkpt>
      <trkpt lat="47.21742" lon="-0.99692">
        <ele>106</ele>
        <time>2025-07-02T20:46:40Z</time>
      </trkpt>
      <trkpt lat="47.21747" lon="-0.99695">
        <ele>106</ele>
        <time>2025-07-02T20:46:47Z</time>
      </trkpt>
      <trkpt lat="47.21746" lon="-0.99706">
        <ele>106</ele>
        <time>2025-07-02T20:46:57Z</time>
      </trkpt>
      <trkpt lat="47.21748" lon="-0.99719">
        <ele>107</ele>
        <time>2025-07-02T20:47:09Z</time>
      </trkpt>
      <trkpt lat="47.21754" lon="-0.9973">
        <ele>107</ele>
        <time>2025-07-02T20:47:22Z</time>
      </trkpt>
      <trkpt lat="47.21784" lon="-0.99762">
        <ele>108</ele>
        <time>2025-07-02T20:48:11Z</time>
      </trkpt>
      <trkpt lat="47.21821" lon="-0.9981">
        <ele>110</ele>
        <time>2025-07-02T20:49:17Z</time>
      </trkpt>
      <trkpt lat="47.21846" lon="-0.99851">
        <ele>111</ele>
        <time>2025-07-02T20:50:07Z</time>
      </trkpt>
      <trkpt lat="47.21901" lon="-0.99953">
        <ele>111</ele>
        <time>2025-07-02T20:52:05Z</time>
      </trkpt>
      <trkpt lat="47.21965" lon="-1.00078">
        <ele>109</ele>
        <time>2025-07-02T20:54:27Z</time>
      </trkpt>
      <trkpt lat="47.22008" lon="-1.00134">
        <ele>108</ele>
        <time>2025-07-02T20:55:44Z</time>
      </trkpt>
      <trkpt lat="47.22051" lon="-1.00181">
        <ele>106</ele>
        <time>2025-07-02T20:56:55Z</time>
      </trkpt>
      <trkpt lat="47.22104" lon="-1.00229">
        <ele>104</ele>
        <time>2025-07-02T20:58:18Z</time>
      </trkpt>
      <trkpt lat="47.22117" lon="-1.00248">
        <ele>103</ele>
        <time>2025-07-02T20:58:42Z</time>
      </trkpt>
      <trkpt lat="47.22126" lon="-1.0027">
        <ele>103</ele>
        <time>2025-07-02T20:59:06Z</time>
      </trkpt>
      <trkpt lat="47.22149" lon="-1.00272">
        <ele>103</ele>
        <time>2025-07-02T20:59:37Z</time>
      </trkpt>
      <trkpt lat="47.22199" lon="-1.00302">
        <ele>103</ele>
        <time>2025-07-02T21:00:49Z</time>
      </trkpt>
      <trkpt lat="47.22274" lon="-1.00349">
        <ele>104</ele>
        <time>2025-07-02T21:02:37Z</time>
      </trkpt>
      <trkpt lat="47.22363" lon="-1.00399">
        <ele>105</ele>
        <time>2025-07-02T21:04:44Z</time>
      </trkpt>
      <trkpt lat="47.22426" lon="-1.00431">
        <ele>105</ele>
        <time>2025-07-02T21:06:13Z</time>
      </trkpt>
      <trkpt lat="47.22506" lon="-1.00466">
        <ele>104</ele>
        <time>2025-07-02T21:08:05Z</time>
      </trkpt>
      <trkpt lat="47.22592" lon="-1.00495">
        <ele>106</ele>
        <time>2025-07-02T21:10:02Z</time>
      </trkpt>
      <trkpt lat="47.22622" lon="-1.00509">
        <ele>106</ele>
        <time>2025-07-02T21:10:44Z</time>
      </trkpt>
      <trkpt lat="47.2266" lon="-1.00531">
        <ele>106</ele>
        <time>2025-07-02T21:11:39Z</time>
      </trkpt>
      <trkpt lat="47.2273" lon="-1.00575">
        <ele>104</ele>
        <time>2025-07-02T21:13:21Z</time>
      </trkpt>
      <trkpt lat="47.22749" lon="-1.00588">
        <ele>104</ele>
        <time>2025-07-02T21:13:49Z</time>
      </trkpt>
      <trkpt lat="47.22771" lon="-1.00608">
        <ele>104</ele>
        <time>2025-07-02T21:14:23Z</time>
      </trkpt>
      <trkpt lat="47.22831" lon="-1.00665">
        <ele>105</ele>
        <time>2025-07-02T21:15:58Z</time>
      </trkpt>
      <trkpt lat="47.22879" lon="-1.00716">
        <ele>104</ele>
        <time>2025-07-02T21:17:17Z</time>
      </trkpt>
      <trkpt lat="47.23167" lon="-1.00977">
        <ele>104</ele>
        <time>2025-07-02T21:24:49Z</time>
      </trkpt>
      <trkpt lat="47.23226" lon="-1.01036">
        <ele>104</ele>
        <time>2025-07-02T21:26:24Z</time>
      </trkpt>
      <trkpt lat="47.23327" lon="-1.01114">
        <ele>104</ele>
        <time>2025-07-02T21:28:56Z</time>
      </trkpt>
      <trkpt lat="47.23425" lon="-1.01156">
        <ele>102</ele>
        <time>2025-07-02T21:31:12Z</time>
      </trkpt>
      <trkpt lat="47.23489" lon="-1.01171">
        <ele>101</ele>
        <time>2025-07-02T21:32:39Z</time>
      </trkpt>
      <trkpt lat="47.23542" lon="-1.01177">
        <ele>101</ele>
        <time>2025-07-02T21:33:50Z</time>
      </trkpt>
      <trkpt lat="47.23613" lon="-1.01176">
        <ele>100</ele>
        <time>2025-07-02T21:35:24Z</time>
      </trkpt>
      <trkpt lat="47.23648" lon="-1.01194">
        <ele>98</ele>
        <time>2025-07-02T21:36:14Z</time>
      </trkpt>
      <trkpt lat="47.23665" lon="-1.0119">
        <ele>98</ele>
        <time>2025-07-02T21:36:37Z</time>
      </trkpt>
      <trkpt lat="47.23684" lon="-1.012">
        <ele>98</ele>
        <time>2025-07-02T21:37:04Z</time>
      </trkpt>
      <trkpt lat="47.23752" lon="-1.01204">
        <ele>99</ele>
        <time>2025-07-02T21:38:34Z</time>
      </trkpt>
      <trkpt lat="47.23804" lon="-1.01219">
        <ele>100</ele>
        <time>2025-07-02T21:39:45Z</time>
      </trkpt>
      <trkpt lat="47.23833" lon="-1.01232">
        <ele>101</ele>
        <time>2025-07-02T21:40:26Z</time>
      </trkpt>
      <trkpt lat="47.23867" lon="-1.01245">
        <ele>103</ele>
        <time>2025-07-02T21:41:13Z</time>
      </trkpt>
      <trkpt lat="47.23898" lon="-1.0126">
        <ele>104</ele>
        <time>2025-07-02T21:41:56Z</time>
      </trkpt>
      <trkpt lat="47.23962" lon="-1.013">
        <ele>103</ele>
        <time>2025-07-02T21:43:29Z</time>
      </trkpt>
      <trkpt lat="47.2401" lon="-1.01345">
        <ele>102</ele>
        <time>2025-07-02T21:44:45Z</time>
      </trkpt>
      <trkpt lat="47.24067" lon="-1.01409">
        <ele>102</ele>
        <time>2025-07-02T21:46:20Z</time>
      </trkpt>
      <trkpt lat="47.24193" lon="-1.01574">
        <ele>96</ele>
        <time>2025-07-02T21:50:05Z</time>
      </trkpt>
      <trkpt lat="47.2425" lon="-1.01647">
        <ele>95</ele>
        <time>2025-07-02T21:51:46Z</time>
      </trkpt>
      <trkpt lat="47.24282" lon="-1.0172">
        <ele>94</ele>
        <time>2025-07-02T21:53:05Z</time>
      </trkpt>
      <trkpt lat="47.24319" lon="-1.01779">
        <ele>94</ele>
        <time>2025-07-02T21:54:18Z</time>
      </trkpt>
      <trkpt lat="47.2433" lon="-1.01759">
        <ele>95</ele>
        <time>2025-07-02T21:54:41Z</time>
      </trkpt>
      <trkpt lat="47.24594" lon="-1.01872">
        <ele>94</ele>
        <time>2025-07-02T22:00:48Z</time>
      </trkpt>
      <trkpt lat="47.24612" lon="-1.01886">
        <ele>94</ele>
        <time>2025-07-02T22:01:15Z</time>
      </trkpt>
      <trkpt lat="47.24629" lon="-1.01901">
        <ele>95</ele>
        <time>2025-07-02T22:01:41Z</time>
      </trkpt>
      <trkpt lat="47.24653" lon="-1.01928">
        <ele>96</ele>
        <time>2025-07-02T22:02:22Z</time>
      </trkpt>
      <trkpt lat="47.24702" lon="-1.01994">
        <ele>97</ele>
        <time>2025-07-02T22:03:50Z</time>
      </trkpt>
      <trkpt lat="47.24731" lon="-1.02025">
        <ele>97</ele>
        <time>2025-07-02T22:04:38Z</time>
      </trkpt>
      <trkpt lat="47.24745" lon="-1.02043">
        <ele>97</ele>
        <time>2025-07-02T22:05:03Z</time>
      </trkpt>
      <trkpt lat="47.24795" lon="-1.02094">
        <ele>95</ele>
        <time>2025-07-02T22:06:24Z</time>
      </trkpt>
      <trkpt lat="47.24818" lon="-1.02114">
        <ele>94</ele>
        <time>2025-07-02T22:07:00Z</time>
      </trkpt>
      <trkpt lat="47.24877" lon="-1.02162">
        <ele>91</ele>
        <time>2025-07-02T22:08:30Z</time>
      </trkpt>
      <trkpt lat="47.24969" lon="-1.02229">
        <ele>87</ele>
        <time>2025-07-02T22:10:47Z</time>
      </trkpt>
      <trkpt lat="47.25026" lon="-1.02257">
        <ele>86</ele>
        <time>2025-07-02T22:12:07Z</time>
      </trkpt>
      <trkpt lat="47.25039" lon="-1.02266">
        <ele>86</ele>
        <time>2025-07-02T22:12:26Z</time>
      </trkpt>
      <trkpt lat="47.25083" lon="-1.02318">
        <ele>84</ele>
        <time>2025-07-02T22:13:41Z</time>
      </trkpt>
      <trkpt lat="47.25101" lon="-1.02339">
        <ele>86</ele>
        <time>2025-07-02T22:14:12Z</time>
      </trkpt>
      <trkpt lat="47.25111" lon="-1.02343">
        <ele>86</ele>
        <time>2025-07-02T22:14:26Z</time>
      </trkpt>
      <trkpt lat="47.25124" lon="-1.02343">
        <ele>88</ele>
        <time>2025-07-02T22:14:43Z</time>
      </trkpt>
      <trkpt lat="47.25111" lon="-1.02343">
        <ele>86</ele>
        <time>2025-07-02T22:15:00Z</time>
      </trkpt>
      <trkpt lat="47.25101" lon="-1.02339">
        <ele>86</ele>
        <time>2025-07-02T22:15:14Z</time>
      </trkpt>
      <trkpt lat="47.25113" lon="-1.02364">
        <ele>86</ele>
        <time>2025-07-02T22:15:42Z</time>
      </trkpt>
      <trkpt lat="47.25256" lon="-1.02499">
        <ele>95</ele>
        <time>2025-07-02T22:19:29Z</time>
      </trkpt>
      <trkpt lat="47.25285" lon="-1.02581">
        <ele>95</ele>
        <time>2025-07-02T22:20:52Z</time>
      </trkpt>
      <trkpt lat="47.25299" lon="-1.02607">
        <ele>95</ele>
        <time>2025-07-02T22:21:22Z</time>
      </trkpt>
      <trkpt lat="47.25299" lon="-1.02617">
        <ele>95</ele>
        <time>2025-07-02T22:21:32Z</time>
      </trkpt>
      <trkpt lat="47.25285" lon="-1.02642">
        <ele>95</ele>
        <time>2025-07-02T22:22:01Z</time>
      </trkpt>
      <trkpt lat="47.25257" lon="-1.02698">
        <ele>97</ele>
        <time>2025-07-02T22:23:04Z</time>
      </trkpt>
      <trkpt lat="47.25243" lon="-1.02749">
        <ele>98</ele>
        <time>2025-07-02T22:23:54Z</time>
      </trkpt>
      <trkpt lat="47.25237" lon="-1.02816">
        <ele>96</ele>
        <time>2025-07-02T22:24:55Z</time>
      </trkpt>
      <trkpt lat="47.25227" lon="-1.02867">
        <ele>95</ele>
        <time>2025-07-02T22:25:43Z</time>
      </trkpt>
      <trkpt lat="47.25226" lon="-1.02902">
        <ele>95</ele>
        <time>2025-07-02T22:26:15Z</time>
      </trkpt>
      <trkpt lat="47.2523" lon="-1.02953">
        <ele>93</ele>
        <time>2025-07-02T22:27:01Z</time>
      </trkpt>
      <trkpt lat="47.25227" lon="-1.03018">
        <ele>91</ele>
        <time>2025-07-02T22:28:00Z</time>
      </trkpt>
      <trkpt lat="47.25214" lon="-1.03066">
        <ele>90</ele>
        <time>2025-07-02T22:28:47Z</time>
      </trkpt>
      <trkpt lat="47.25198" lon="-1.03103">
        <ele>90</ele>
        <time>2025-07-02T22:29:27Z</time>
      </trkpt>
      <trkpt lat="47.25187" lon="-1.03218">
        <ele>90</ele>
        <time>2025-07-02T22:31:12Z</time>
      </trkpt>
      <trkpt lat="47.25192" lon="-1.03243">
        <ele>90</ele>
        <time>2025-07-02T22:31:36Z</time>
      </trkpt>
      <trkpt lat="47.25193" lon="-1.03262">
        <ele>90</ele>
        <time>2025-07-02T22:31:53Z</time>
      </trkpt>
      <trkpt lat="47.25196" lon="-1.03281">
        <ele>90</ele>
        <time>2025-07-02T22:32:11Z</time>
      </trkpt>
      <trkpt lat="47.25205" lon="-1.03296">
        <ele>89</ele>
        <time>2025-07-02T22:32:29Z</time>
      </trkpt>
      <trkpt lat="47.25203" lon="-1.03309">
        <ele>89</ele>
        <time>2025-07-02T22:32:41Z</time>
      </trkpt>
      <trkpt lat="47.2521" lon="-1.03304">
        <ele>89</ele>
        <time>2025-07-02T22:32:51Z</time>
      </trkpt>
      <trkpt lat="47.25222" lon="-1.03297">
        <ele>89</ele>
        <time>2025-07-02T22:33:08Z</time>
      </trkpt>
      <trkpt lat="47.25239" lon="-1.03273">
        <ele>90</ele>
        <time>2025-07-02T22:33:40Z</time>
      </trkpt>
      <trkpt lat="47.25246" lon="-1.03268">
        <ele>90</ele>
        <time>2025-07-02T22:33:50Z</time>
      </trkpt>
      <trkpt lat="47.25253" lon="-1.03266">
        <ele>90</ele>
        <time>2025-07-02T22:34:00Z</time>
      </trkpt>
      <trkpt lat="47.25287" lon="-1.03264">
        <ele>87</ele>
        <time>2025-07-02T22:34:45Z</time>
      </trkpt>
      <trkpt lat="47.25346" lon="-1.03245">
        <ele>82</ele>
        <time>2025-07-02T22:36:06Z</time>
      </trkpt>
      <trkpt lat="47.2536" lon="-1.03239">
        <ele>81</ele>
        <time>2025-07-02T22:36:25Z</time>
      </trkpt>
      <trkpt lat="47.2537" lon="-1.03233">
        <ele>81</ele>
        <time>2025-07-02T22:36:40Z</time>
      </trkpt>
      <trkpt lat="47.25472" lon="-1.03158">
        <ele>76</ele>
        <time>2025-07-02T22:39:12Z</time>
      </trkpt>
      <trkpt lat="47.25495" lon="-1.03146">
        <ele>75</ele>
        <time>2025-07-02T22:39:44Z</time>
      </trkpt>
      <trkpt lat="47.25535" lon="-1.03131">
        <ele>73</ele>
        <time>2025-07-02T22:40:39Z</time>
      </trkpt>
      <trkpt lat="47.2554" lon="-1.03128">
        <ele>72</ele>
        <time>2025-07-02T22:40:47Z</time>
      </trkpt>
      <trkpt lat="47.25547" lon="-1.03123">
        <ele>72</ele>
        <time>2025-07-02T22:40:57Z</time>
      </trkpt>
      <trkpt lat="47.2554" lon="-1.03128">
        <ele>72</ele>
        <time>2025-07-02T22:41:07Z</time>
      </trkpt>
      <trkpt lat="47.25553" lon="-1.03167">
        <ele>72</ele>
        <time>2025-07-02T22:41:47Z</time>
      </trkpt>
      <trkpt lat="47.25662" lon="-1.0336">
        <ele>64</ele>
        <time>2025-07-02T22:45:34Z</time>
      </trkpt>
      <trkpt lat="47.25707" lon="-1.03447">
        <ele>59</ele>
        <time>2025-07-02T22:47:13Z</time>
      </trkpt>
      <trkpt lat="47.25721" lon="-1.03509">
        <ele>58</ele>
        <time>2025-07-02T22:48:12Z</time>
      </trkpt>
      <trkpt lat="47.2574" lon="-1.03651">
        <ele>61</ele>
        <time>2025-07-02T22:50:23Z</time>
      </trkpt>
      <trkpt lat="47.2575" lon="-1.03743">
        <ele>61</ele>
        <time>2025-07-02T22:51:48Z</time>
      </trkpt>
      <trkpt lat="47.2577" lon="-1.03815">
        <ele>61</ele>
        <time>2025-07-02T22:52:58Z</time>
      </trkpt>
      <trkpt lat="47.25799" lon="-1.03898">
        <ele>56</ele>
        <time>2025-07-02T22:54:23Z</time>
      </trkpt>
      <trkpt lat="47.25839" lon="-1.03988">
        <ele>49</ele>
        <time>2025-07-02T22:56:00Z</time>
      </trkpt>
      <trkpt lat="47.25873" lon="-1.0405">
        <ele>44</ele>
        <time>2025-07-02T22:57:12Z</time>
      </trkpt>
      <trkpt lat="47.2588" lon="-1.04054">
        <ele>43</ele>
        <time>2025-07-02T22:57:22Z</time>
      </trkpt>
      <trkpt lat="47.2594" lon="-1.04095">
        <ele>40</ele>
        <time>2025-07-02T22:58:51Z</time>
      </trkpt>
      <trkpt lat="47.26041" lon="-1.04116">
        <ele>39</ele>
        <time>2025-07-02T23:01:07Z</time>
      </trkpt>
      <trkpt lat="47.26057" lon="-1.04124">
        <ele>38</ele>
        <time>2025-07-02T23:01:29Z</time>
      </trkpt>
      <trkpt lat="47.26066" lon="-1.04179">
        <ele>34</ele>
        <time>2025-07-02T23:02:21Z</time>
      </trkpt>
      <trkpt lat="47.26063" lon="-1.04187">
        <ele>33</ele>
        <time>2025-07-02T23:02:29Z</time>
      </trkpt>
      <trkpt lat="47.26062" lon="-1.0424">
        <ele>33</ele>
        <time>2025-07-02T23:03:17Z</time>
      </trkpt>
      <trkpt lat="47.26064" lon="-1.04266">
        <ele>32</ele>
        <time>2025-07-02T23:03:41Z</time>
      </trkpt>
      <trkpt lat="47.26066" lon="-1.0428">
        <ele>32</ele>
        <time>2025-07-02T23:03:54Z</time>
      </trkpt>
      <trkpt lat="47.26073" lon="-1.04299">
        <ele>32</ele>
        <time>2025-07-02T23:04:13Z</time>
      </trkpt>
      <trkpt lat="47.26077" lon="-1.04318">
        <ele>31</ele>
        <time>2025-07-02T23:04:31Z</time>
      </trkpt>
      <trkpt lat="47.26081" lon="-1.04345">
        <ele>32</ele>
        <time>2025-07-02T23:04:56Z</time>
      </trkpt>
      <trkpt lat="47.26082" lon="-1.04355">
        <ele>32</ele>
        <time>2025-07-02T23:05:05Z</time>
      </trkpt>
      <trkpt lat="47.26082" lon="-1.04378">
        <ele>33</ele>
        <time>2025-07-02T23:05:26Z</time>
      </trkpt>
      <trkpt lat="47.26082" lon="-1.0439">
        <ele>34</ele>
        <time>2025-07-02T23:05:37Z</time>
      </trkpt>
      <trkpt lat="47.26084" lon="-1.04403">
        <ele>34</ele>
        <time>2025-07-02T23:05:49Z</time>
      </trkpt>
      <trkpt lat="47.26089" lon="-1.04423">
        <ele>36</ele>
        <time>2025-07-02T23:06:08Z</time>
      </trkpt>
      <trkpt lat="47.26093" lon="-1.04435">
        <ele>38</ele>
        <time>2025-07-02T23:06:21Z</time>
      </trkpt>
      <trkpt lat="47.26103" lon="-1.04449">
        <ele>41</ele>
        <time>2025-07-02T23:06:39Z</time>
      </trkpt>
      <trkpt lat="47.26118" lon="-1.04468">
        <ele>44</ele>
        <time>2025-07-02T23:07:05Z</time>
      </trkpt>
      <trkpt lat="47.26134" lon="-1.04478">
        <ele>45</ele>
        <time>2025-07-02T23:07:28Z</time>
      </trkpt>
      <trkpt lat="47.2617" lon="-1.04507">
        <ele>49</ele>
        <time>2025-07-02T23:08:23Z</time>
      </trkpt>
      <trkpt lat="47.26174" lon="-1.04526">
        <ele>50</ele>
        <time>2025-07-02T23:08:41Z</time>
      </trkpt>
      <trkpt lat="47.26177" lon="-1.04525">
        <ele>50</ele>
        <time>2025-07-02T23:08:45Z</time>
      </trkpt>
      <trkpt lat="47.2618" lon="-1.04524">
        <ele>50</ele>
        <time>2025-07-02T23:08:49Z</time>
      </trkpt>
      <trkpt lat="47.26177" lon="-1.04525">
        <ele>50</ele>
        <time>2025-07-02T23:08:54Z</time>
      </trkpt>
      <trkpt lat="47.26174" lon="-1.04526">
        <ele>50</ele>
        <time>2025-07-02T23:08:58Z</time>
      </trkpt>
      <trkpt lat="47.26135" lon="-1.04534">
        <ele>52</ele>
        <time>2025-07-02T23:09:50Z</time>
      </trkpt>
      <trkpt lat="47.26124" lon="-1.04535">
        <ele>52</ele>
        <time>2025-07-02T23:10:05Z</time>
      </trkpt>
      <trkpt lat="47.26107" lon="-1.0454">
        <ele>53</ele>
        <time>2025-07-02T23:10:28Z</time>
      </trkpt>
      <trkpt lat="47.26092" lon="-1.04543">
        <ele>53</ele>
        <time>2025-07-02T23:10:48Z</time>
      </trkpt>
      <trkpt lat="47.26081" lon="-1.0458">
        <ele>57</ele>
        <time>2025-07-02T23:11:25Z</time>
      </trkpt>
      <trkpt lat="47.26051" lon="-1.04565">
        <ele>54</ele>
        <time>2025-07-02T23:12:07Z</time>
      </trkpt>
      <trkpt lat="47.26042" lon="-1.04563">
        <ele>53</ele>
        <time>2025-07-02T23:12:19Z</time>
      </trkpt>
      <trkpt lat="47.26003" lon="-1.04564">
        <ele>52</ele>
        <time>2025-07-02T23:13:11Z</time>
      </trkpt>
      <trkpt lat="47.25985" lon="-1.0457">
        <ele>50</ele>
        <time>2025-07-02T23:13:36Z</time>
      </trkpt>
      <trkpt lat="47.25975" lon="-1.04567">
        <ele>49</ele>
        <time>2025-07-02T23:13:50Z</time>
      </trkpt>
      <trkpt lat="47.25955" lon="-1.04569">
        <ele>47</ele>
        <time>2025-07-02T23:14:16Z</time>
      </trkpt>
      <trkpt lat="47.25936" lon="-1.04577">
        <ele>45</ele>
        <time>2025-07-02T23:14:43Z</time>
      </trkpt>
      <trkpt lat="47.2591" lon="-1.04592">
        <ele>44</ele>
        <time>2025-07-02T23:15:20Z</time>
      </trkpt>
      <trkpt lat="47.25847" lon="-1.04645">
        <ele>41</ele>
        <time>2025-07-02T23:16:57Z</time>
      </trkpt>
      <trkpt lat="47.25838" lon="-1.0465">
        <ele>41</ele>
        <time>2025-07-02T23:17:10Z</time>
      </trkpt>
      <trkpt lat="47.25829" lon="-1.04652">
        <ele>40</ele>
        <time>2025-07-02T23:17:22Z</time>
      </trkpt>
      <trkpt lat="47.2582" lon="-1.04652">
        <ele>39</ele>
        <time>2025-07-02T23:17:34Z</time>
      </trkpt>
      <trkpt lat="47.25809" lon="-1.04652">
        <ele>38</ele>
        <time>2025-07-02T23:17:48Z</time>
      </trkpt>
      <trkpt lat="47.25796" lon="-1.0465">
        <ele>37</ele>
        <time>2025-07-02T23:18:06Z</time>
      </trkpt>
      <trkpt lat="47.25764" lon="-1.04646">
        <ele>35</ele>
        <time>2025-07-02T23:18:49Z</time>
      </trkpt>
      <trkpt lat="47.25726" lon="-1.04641">
        <ele>36</ele>
        <time>2025-07-02T23:19:40Z</time>
      </trkpt>
      <trkpt lat="47.25701" lon="-1.04638">
        <ele>37</ele>
        <time>2025-07-02T23:20:13Z</time>
      </trkpt>
      <trkpt lat="47.25692" lon="-1.04637">
        <ele>38</ele>
        <time>2025-07-02T23:20:25Z</time>
      </trkpt>
      <trkpt lat="47.25681" lon="-1.04638">
        <ele>38</ele>
        <time>2025-07-02T23:20:40Z</time>
      </trkpt>
      <trkpt lat="47.25587" lon="-1.04653">
        <ele>45</ele>
        <time>2025-07-02T23:22:46Z</time>
      </trkpt>
      <trkpt lat="47.25549" lon="-1.04659">
        <ele>47</ele>
        <time>2025-07-02T23:23:37Z</time>
      </trkpt>
      <trkpt lat="47.2554" lon="-1.04661">
        <ele>48</ele>
        <time>2025-07-02T23:23:49Z</time>
      </trkpt>
      <trkpt lat="47.25545" lon="-1.0467">
        <ele>46</ele>
        <time>2025-07-02T23:24:00Z</time>
      </trkpt>
      <trkpt lat="47.25582" lon="-1.04681">
        <ele>43</ele>
        <time>2025-07-02T23:24:50Z</time>
      </trkpt>
      <trkpt lat="47.25587" lon="-1.04694">
        <ele>41</ele>
        <time>2025-07-02T23:25:04Z</time>
      </trkpt>
      <trkpt lat="47.2559" lon="-1.0471">
        <ele>39</ele>
        <time>2025-07-02T23:25:19Z</time>
      </trkpt>
      <trkpt lat="47.25562" lon="-1.04754">
        <ele>36</ele>
        <time>2025-07-02T23:26:13Z</time>
      </trkpt>
      <trkpt lat="47.25526" lon="-1.04792">
        <ele>35</ele>
        <time>2025-07-02T23:27:12Z</time>
      </trkpt>
      <trkpt lat="47.25485" lon="-1.04808">
        <ele>35</ele>
        <time>2025-07-02T23:28:09Z</time>
      </trkpt>
      <trkpt lat="47.25409" lon="-1.04823">
        <ele>34</ele>
        <time>2025-07-02T23:29:51Z</time>
      </trkpt>
      <trkpt lat="47.25371" lon="-1.04827">
        <ele>36</ele>
        <time>2025-07-02T23:30:42Z</time>
      </trkpt>
      <trkpt lat="47.25332" lon="-1.0484">
        <ele>37</ele>
        <time>2025-07-02T23:31:36Z</time>
      </trkpt>
      <trkpt lat="47.25296" lon="-1.04895">
        <ele>42</ele>
        <time>2025-07-02T23:32:45Z</time>
      </trkpt>
      <trkpt lat="47.25292" lon="-1.04953">
        <ele>45</ele>
        <time>2025-07-02T23:33:38Z</time>
      </trkpt>
      <trkpt lat="47.25279" lon="-1.05034">
        <ele>53</ele>
        <time>2025-07-02T23:34:53Z</time>
      </trkpt>
      <trkpt lat="47.25268" lon="-1.05085">
        <ele>58</ele>
        <time>2025-07-02T23:35:41Z</time>
      </trkpt>
      <trkpt lat="47.25274" lon="-1.05102">
        <ele>56</ele>
        <time>2025-07-02T23:35:59Z</time>
      </trkpt>
      <trkpt lat="47.25271" lon="-1.05121">
        <ele>57</ele>
        <time>2025-07-02T23:36:16Z</time>
      </trkpt>
      <trkpt lat="47.25266" lon="-1.05159">
        <ele>57</ele>
        <time>2025-07-02T23:36:51Z</time>
      </trkpt>
      <trkpt lat="47.25255" lon="-1.05204">
        <ele>62</ele>
        <time>2025-07-02T23:37:35Z</time>
      </trkpt>
      <trkpt lat="47.25264" lon="-1.05279">
        <ele>61</ele>
        <time>2025-07-02T23:38:44Z</time>
      </trkpt>
      <trkpt lat="47.25272" lon="-1.05395">
        <ele>63</ele>
        <time>2025-07-02T23:40:29Z</time>
      </trkpt>
      <trkpt lat="47.25257" lon="-1.05455">
        <ele>68</ele>
        <time>2025-07-02T23:41:27Z</time>
      </trkpt>
      <trkpt lat="47.25244" lon="-1.05565">
        <ele>67</ele>
        <time>2025-07-02T23:43:08Z</time>
      </trkpt>
      <trkpt lat="47.25235" lon="-1.05666">
        <ele>67</ele>
        <time>2025-07-02T23:44:41Z</time>
      </trkpt>
      <trkpt lat="47.25225" lon="-1.05698">
        <ele>66</ele>
        <time>2025-07-02T23:45:13Z</time>
      </trkpt>
      <trkpt lat="47.2518" lon="-1.05723">
        <ele>71</ele>
        <time>2025-07-02T23:46:17Z</time>
      </trkpt>
      <trkpt lat="47.25115" lon="-1.05774">
        <ele>72</ele>
        <time>2025-07-02T23:47:55Z</time>
      </trkpt>
      <trkpt lat="47.25073" lon="-1.05794">
        <ele>73</ele>
        <time>2025-07-02T23:48:54Z</time>
      </trkpt>
      <trkpt lat="47.25031" lon="-1.05788">
        <ele>79</ele>
        <time>2025-07-02T23:49:50Z</time>
      </trkpt>
      <trkpt lat="47.24964" lon="-1.05784">
        <ele>85</ele>
        <time>2025-07-02T23:51:20Z</time>
      </trkpt>
      <trkpt lat="47.24944" lon="-1.05802">
        <ele>86</ele>
        <time>2025-07-02T23:51:51Z</time>
      </trkpt>
      <trkpt lat="47.24932" lon="-1.05826">
        <ele>86</ele>
        <time>2025-07-02T23:52:18Z</time>
      </trkpt>
      <trkpt lat="47.24903" lon="-1.05899">
        <ele>88</ele>
        <time>2025-07-02T23:53:35Z</time>
      </trkpt>
      <trkpt lat="47.24898" lon="-1.05969">
        <ele>89</ele>
        <time>2025-07-02T23:54:38Z</time>
      </trkpt>
      <trkpt lat="47.2489" lon="-1.06047">
        <ele>89</ele>
        <time>2025-07-02T23:55:50Z</time>
      </trkpt>
      <trkpt lat="47.24857" lon="-1.06134">
        <ele>92</ele>
        <time>2025-07-02T23:57:20Z</time>
      </trkpt>
      <trkpt lat="47.24843" lon="-1.06159">
        <ele>93</ele>
        <time>2025-07-02T23:57:50Z</time>
      </trkpt>
      <trkpt lat="47.24811" lon="-1.06212">
        <ele>94</ele>
        <time>2025-07-02T23:58:54Z</time>
      </trkpt>
      <trkpt lat="47.24793" lon="-1.06249">
        <ele>94</ele>
        <time>2025-07-02T23:59:35Z</time>
      </trkpt>
      <trkpt lat="47.24781" lon="-1.06257">
        <ele>95</ele>
        <time>2025-07-02T23:59:53Z</time>
      </trkpt>
      <trkpt lat="47.24768" lon="-1.06252">
        <ele>96</ele>
        <time>2025-07-03T00:00:11Z</time>
      </trkpt>
      <trkpt lat="47.24718" lon="-1.06182">
        <ele>99</ele>
        <time>2025-07-03T00:01:43Z</time>
      </trkpt>
      <trkpt lat="47.247" lon="-1.06156">
        <ele>100</ele>
        <time>2025-07-03T00:02:16Z</time>
      </trkpt>
      <trkpt lat="47.24687" lon="-1.06176">
        <ele>100</ele>
        <time>2025-07-03T00:02:41Z</time>
      </trkpt>
      <trkpt lat="47.24617" lon="-1.06273">
        <ele>101</ele>
        <time>2025-07-03T00:04:50Z</time>
      </trkpt>
      <trkpt lat="47.24607" lon="-1.06305">
        <ele>101</ele>
        <time>2025-07-03T00:05:21Z</time>
      </trkpt>
      <trkpt lat="47.24606" lon="-1.06377">
        <ele>101</ele>
        <time>2025-07-03T00:06:27Z</time>
      </trkpt>
      <trkpt lat="47.2461" lon="-1.06456">
        <ele>102</ele>
        <time>2025-07-03T00:07:38Z</time>
      </trkpt>
      <trkpt lat="47.24635" lon="-1.06479">
        <ele>101</ele>
        <time>2025-07-03T00:08:18Z</time>
      </trkpt>
      <trkpt lat="47.24646" lon="-1.06504">
        <ele>101</ele>
        <time>2025-07-03T00:08:45Z</time>
      </trkpt>
      <trkpt lat="47.24646" lon="-1.06523">
        <ele>101</ele>
        <time>2025-07-03T00:09:02Z</time>
      </trkpt>
      <trkpt lat="47.24647" lon="-1.06528">
        <ele>101</ele>
        <time>2025-07-03T00:09:07Z</time>
      </trkpt>
      <trkpt lat="47.2463" lon="-1.06558">
        <ele>101</ele>
        <time>2025-07-03T00:09:42Z</time>
      </trkpt>
      <trkpt lat="47.24615" lon="-1.06611">
        <ele>101</ele>
        <time>2025-07-03T00:10:34Z</time>
      </trkpt>
      <trkpt lat="47.24495" lon="-1.06841">
        <ele>104</ele>
        <time>2025-07-03T00:14:57Z</time>
      </trkpt>
      <trkpt lat="47.24445" lon="-1.06925">
        <ele>105</ele>
        <time>2025-07-03T00:16:38Z</time>
      </trkpt>
      <trkpt lat="47.24408" lon="-1.07009">
        <ele>104</ele>
        <time>2025-07-03T00:18:09Z</time>
      </trkpt>
      <trkpt lat="47.24321" lon="-1.0716">
        <ele>106</ele>
        <time>2025-07-03T00:21:08Z</time>
      </trkpt>
      <trkpt lat="47.24281" lon="-1.07246">
        <ele>106</ele>
        <time>2025-07-03T00:22:43Z</time>
      </trkpt>
      <trkpt lat="47.24268" lon="-1.07301">
        <ele>106</ele>
        <time>2025-07-03T00:23:35Z</time>
      </trkpt>
      <trkpt lat="47.24227" lon="-1.07372">
        <ele>106</ele>
        <time>2025-07-03T00:25:00Z</time>
      </trkpt>
      <trkpt lat="47.24146" lon="-1.07479">
        <ele>107</ele>
        <time>2025-07-03T00:27:25Z</time>
      </trkpt>
      <trkpt lat="47.24112" lon="-1.07555">
        <ele>106</ele>
        <time>2025-07-03T00:28:48Z</time>
      </trkpt>
      <trkpt lat="47.24056" lon="-1.07745">
        <ele>103</ele>
        <time>2025-07-03T00:31:55Z</time>
      </trkpt>
      <trkpt lat="47.24041" lon="-1.07805">
        <ele>102</ele>
        <time>2025-07-03T00:32:53Z</time>
      </trkpt>
      <trkpt lat="47.2404" lon="-1.07863">
        <ele>101</ele>
        <time>2025-07-03T00:33:46Z</time>
      </trkpt>
      <trkpt lat="47.24081" lon="-1.07979">
        <ele>103</ele>
        <time>2025-07-03T00:35:44Z</time>
      </trkpt>
      <trkpt lat="47.24089" lon="-1.08021">
        <ele>103</ele>
        <time>2025-07-03T00:36:24Z</time>
      </trkpt>
      <trkpt lat="47.24082" lon="-1.08049">
        <ele>102</ele>
        <time>2025-07-03T00:36:51Z</time>
      </trkpt>
      <trkpt lat="47.24091" lon="-1.08082">
        <ele>101</ele>
        <time>2025-07-03T00:37:23Z</time>
      </trkpt>
      <trkpt lat="47.24096" lon="-1.08137">
        <ele>101</ele>
        <time>2025-07-03T00:38:13Z</time>
      </trkpt>
      <trkpt lat="47.24104" lon="-1.08163">
        <ele>102</ele>
        <time>2025-07-03T00:38:39Z</time>
      </trkpt>
      <trkpt lat="47.24124" lon="-1.08189">
        <ele>104</ele>
        <time>2025-07-03T00:39:15Z</time>
      </trkpt>
      <trkpt lat="47.24111" lon="-1.08193">
        <ele>103</ele>
        <time>2025-07-03T00:39:32Z</time>
      </trkpt>
      <trkpt lat="47.2409" lon="-1.08212">
        <ele>103</ele>
        <time>2025-07-03T00:40:05Z</time>
      </trkpt>
      <trkpt lat="47.24048" lon="-1.08236">
        <ele>102</ele>
        <time>2025-07-03T00:41:05Z</time>
      </trkpt>
      <trkpt lat="47.23989" lon="-1.08255">
        <ele>99</ele>
        <time>2025-07-03T00:42:26Z</time>
      </trkpt>
      <trkpt lat="47.23956" lon="-1.08287">
        <ele>97</ele>
        <time>2025-07-03T00:43:19Z</time>
      </trkpt>
      <trkpt lat="47.23908" lon="-1.08303">
        <ele>95</ele>
        <time>2025-07-03T00:44:24Z</time>
      </trkpt>
      <trkpt lat="47.23857" lon="-1.08289">
        <ele>95</ele>
        <time>2025-07-03T00:45:34Z</time>
      </trkpt>
      <trkpt lat="47.23813" lon="-1.08336">
        <ele>96</ele>
        <time>2025-07-03T00:46:46Z</time>
      </trkpt>
      <trkpt lat="47.23783" lon="-1.08358">
        <ele>97</ele>
        <time>2025-07-03T00:47:31Z</time>
      </trkpt>
      <trkpt lat="47.23764" lon="-1.08398">
        <ele>99</ele>
        <time>2025-07-03T00:48:15Z</time>
      </trkpt>
      <trkpt lat="47.23751" lon="-1.08423">
        <ele>100</ele>
        <time>2025-07-03T00:48:44Z</time>
      </trkpt>
      <trkpt lat="47.23694" lon="-1.08476">
        <ele>101</ele>
        <time>2025-07-03T00:50:14Z</time>
      </trkpt>
      <trkpt lat="47.22862" lon="-1.07953">
        <ele>103</ele>
        <time>2025-07-03T01:10:21Z</time>
      </trkpt>
      <trkpt lat="47.2288" lon="-1.07926">
        <ele>104</ele>
        <time>2025-07-03T01:10:55Z</time>
      </trkpt>
      <trkpt lat="47.22886" lon="-1.07915">
        <ele>103</ele>
        <time>2025-07-03T01:11:08Z</time>
      </trkpt>
      <trkpt lat="47.22891" lon="-1.07904">
        <ele>103</ele>
        <time>2025-07-03T01:11:20Z</time>
      </trkpt>
      <trkpt lat="47.22893" lon="-1.07889">
        <ele>103</ele>
        <time>2025-07-03T01:11:34Z</time>
      </trkpt>
      <trkpt lat="47.22894" lon="-1.07872">
        <ele>102</ele>
        <time>2025-07-03T01:11:49Z</time>
      </trkpt>
      <trkpt lat="47.22892" lon="-1.07853">
        <ele>101</ele>
        <time>2025-07-03T01:12:07Z</time>
      </trkpt>
      <trkpt lat="47.2287" lon="-1.07656">
        <ele>99</ele>
        <time>2025-07-03T01:15:08Z</time>
      </trkpt>
      <trkpt lat="47.22861" lon="-1.07579">
        <ele>99</ele>
        <time>2025-07-03T01:16:18Z</time>
      </trkpt>
      <trkpt lat="47.22852" lon="-1.07524">
        <ele>98</ele>
        <time>2025-07-03T01:17:10Z</time>
      </trkpt>
      <trkpt lat="47.22839" lon="-1.07457">
        <ele>99</ele>
        <time>2025-07-03T01:18:13Z</time>
      </trkpt>
      <trkpt lat="47.22813" lon="-1.0733">
        <ele>98</ele>
        <time>2025-07-03T01:20:13Z</time>
      </trkpt>
      <trkpt lat="47.22783" lon="-1.07247">
        <ele>97</ele>
        <time>2025-07-03T01:21:38Z</time>
      </trkpt>
      <trkpt lat="47.22759" lon="-1.07174">
        <ele>96</ele>
        <time>2025-07-03T01:22:52Z</time>
      </trkpt>
      <trkpt lat="47.22746" lon="-1.07134">
        <ele>96</ele>
        <time>2025-07-03T01:23:32Z</time>
      </trkpt>
      <trkpt lat="47.2274" lon="-1.07102">
        <ele>95</ele>
        <time>2025-07-03T01:24:02Z</time>
      </trkpt>
      <trkpt lat="47.22734" lon="-1.07067">
        <ele>94</ele>
        <time>2025-07-03T01:24:35Z</time>
      </trkpt>
      <trkpt lat="47.22732" lon="-1.07038">
        <ele>94</ele>
        <time>2025-07-03T01:25:01Z</time>
      </trkpt>
      <trkpt lat="47.22732" lon="-1.07007">
        <ele>93</ele>
        <time>2025-07-03T01:25:29Z</time>
      </trkpt>
      <trkpt lat="47.22731" lon="-1.07001">
        <ele>92</ele>
        <time>2025-07-03T01:25:35Z</time>
      </trkpt>
      <trkpt lat="47.22745" lon="-1.06996">
        <ele>92</ele>
        <time>2025-07-03T01:25:54Z</time>
      </trkpt>
      <trkpt lat="47.22744" lon="-1.06989">
        <ele>92</ele>
        <time>2025-07-03T01:26:00Z</time>
      </trkpt>
      <trkpt lat="47.22744" lon="-1.06977">
        <ele>91</ele>
        <time>2025-07-03T01:26:11Z</time>
      </trkpt>
      <trkpt lat="47.22746" lon="-1.06964">
        <ele>90</ele>
        <time>2025-07-03T01:26:23Z</time>
      </trkpt>
      <trkpt lat="47.22759" lon="-1.06914">
        <ele>88</ele>
        <time>2025-07-03T01:27:12Z</time>
      </trkpt>
      <trkpt lat="47.2276" lon="-1.06888">
        <ele>87</ele>
        <time>2025-07-03T01:27:36Z</time>
      </trkpt>
      <trkpt lat="47.2276" lon="-1.06863">
        <ele>86</ele>
        <time>2025-07-03T01:27:58Z</time>
      </trkpt>
      <trkpt lat="47.22755" lon="-1.0684">
        <ele>85</ele>
        <time>2025-07-03T01:28:20Z</time>
      </trkpt>
      <trkpt lat="47.22747" lon="-1.06813">
        <ele>84</ele>
        <time>2025-07-03T01:28:47Z</time>
      </trkpt>
      <trkpt lat="47.22734" lon="-1.06792">
        <ele>84</ele>
        <time>2025-07-03T01:29:13Z</time>
      </trkpt>
      <trkpt lat="47.2271" lon="-1.06764">
        <ele>82</ele>
        <time>2025-07-03T01:29:53Z</time>
      </trkpt>
      <trkpt lat="47.22673" lon="-1.06729">
        <ele>80</ele>
        <time>2025-07-03T01:30:52Z</time>
      </trkpt>
      <trkpt lat="47.22629" lon="-1.06697">
        <ele>76</ele>
        <time>2025-07-03T01:31:58Z</time>
      </trkpt>
      <trkpt lat="47.22567" lon="-1.06661">
        <ele>71</ele>
        <time>2025-07-03T01:33:27Z</time>
      </trkpt>
      <trkpt lat="47.2254" lon="-1.06638">
        <ele>69</ele>
        <time>2025-07-03T01:34:08Z</time>
      </trkpt>
      <trkpt lat="47.22523" lon="-1.06617">
        <ele>69</ele>
        <time>2025-07-03T01:34:38Z</time>
      </trkpt>
      <trkpt lat="47.22509" lon="-1.06597">
        <ele>69</ele>
        <time>2025-07-03T01:35:04Z</time>
      </trkpt>
      <trkpt lat="47.22495" lon="-1.06572">
        <ele>70</ele>
        <time>2025-07-03T01:35:33Z</time>
      </trkpt>
      <trkpt lat="47.22485" lon="-1.06548">
        <ele>72</ele>
        <time>2025-07-03T01:35:59Z</time>
      </trkpt>
      <trkpt lat="47.22477" lon="-1.06521">
        <ele>74</ele>
        <time>2025-07-03T01:36:25Z</time>
      </trkpt>
      <trkpt lat="47.22474" lon="-1.065">
        <ele>75</ele>
        <time>2025-07-03T01:36:45Z</time>
      </trkpt>
      <trkpt lat="47.22474" lon="-1.06474">
        <ele>76</ele>
        <time>2025-07-03T01:37:08Z</time>
      </trkpt>
      <trkpt lat="47.22479" lon="-1.06449">
        <ele>77</ele>
        <time>2025-07-03T01:37:32Z</time>
      </trkpt>
      <trkpt lat="47.22495" lon="-1.06413">
        <ele>78</ele>
        <time>2025-07-03T01:38:11Z</time>
      </trkpt>
      <trkpt lat="47.22511" lon="-1.06382">
        <ele>79</ele>
        <time>2025-07-03T01:38:46Z</time>
      </trkpt>
      <trkpt lat="47.22521" lon="-1.06359">
        <ele>80</ele>
        <time>2025-07-03T01:39:11Z</time>
      </trkpt>
      <trkpt lat="47.22529" lon="-1.06333">
        <ele>81</ele>
        <time>2025-07-03T01:39:37Z</time>
      </trkpt>
      <trkpt lat="47.22531" lon="-1.06309">
        <ele>82</ele>
        <time>2025-07-03T01:39:59Z</time>
      </trkpt>
      <trkpt lat="47.22531" lon="-1.06287">
        <ele>82</ele>
        <time>2025-07-03T01:40:19Z</time>
      </trkpt>
      <trkpt lat="47.22528" lon="-1.06268">
        <ele>83</ele>
        <time>2025-07-03T01:40:36Z</time>
      </trkpt>
      <trkpt lat="47.22525" lon="-1.0625">
        <ele>83</ele>
        <time>2025-07-03T01:40:53Z</time>
      </trkpt>
      <trkpt lat="47.2252" lon="-1.06234">
        <ele>84</ele>
        <time>2025-07-03T01:41:09Z</time>
      </trkpt>
      <trkpt lat="47.22504" lon="-1.06194">
        <ele>85</ele>
        <time>2025-07-03T01:41:51Z</time>
      </trkpt>
      <trkpt lat="47.22493" lon="-1.06167">
        <ele>85</ele>
        <time>2025-07-03T01:42:20Z</time>
      </trkpt>
      <trkpt lat="47.22476" lon="-1.06123">
        <ele>85</ele>
        <time>2025-07-03T01:43:06Z</time>
      </trkpt>
      <trkpt lat="47.22401" lon="-1.05929">
        <ele>87</ele>
        <time>2025-07-03T01:46:28Z</time>
      </trkpt>
      <trkpt lat="47.22382" lon="-1.05882">
        <ele>89</ele>
        <time>2025-07-03T01:47:18Z</time>
      </trkpt>
      <trkpt lat="47.22369" lon="-1.05857">
        <ele>90</ele>
        <time>2025-07-03T01:47:46Z</time>
      </trkpt>
      <trkpt lat="47.22358" lon="-1.05839">
        <ele>91</ele>
        <time>2025-07-03T01:48:08Z</time>
      </trkpt>
      <trkpt lat="47.22328" lon="-1.05796">
        <ele>91</ele>
        <time>2025-07-03T01:49:04Z</time>
      </trkpt>
      <trkpt lat="47.22299" lon="-1.05745">
        <ele>91</ele>
        <time>2025-07-03T01:50:04Z</time>
      </trkpt>
      <trkpt lat="47.22285" lon="-1.05729">
        <ele>91</ele>
        <time>2025-07-03T01:50:28Z</time>
      </trkpt>
      <trkpt lat="47.22278" lon="-1.05722">
        <ele>91</ele>
        <time>2025-07-03T01:50:39Z</time>
      </trkpt>
      <trkpt lat="47.22197" lon="-1.05672">
        <ele>91</ele>
        <time>2025-07-03T01:52:36Z</time>
      </trkpt>
      <trkpt lat="47.22175" lon="-1.05655">
        <ele>92</ele>
        <time>2025-07-03T01:53:09Z</time>
      </trkpt>
      <trkpt lat="47.22167" lon="-1.05648">
        <ele>92</ele>
        <time>2025-07-03T01:53:22Z</time>
      </trkpt>
      <trkpt lat="47.22161" lon="-1.05639">
        <ele>91</ele>
        <time>2025-07-03T01:53:33Z</time>
      </trkpt>
      <trkpt lat="47.22156" lon="-1.05631">
        <ele>91</ele>
        <time>2025-07-03T01:53:43Z</time>
      </trkpt>
      <trkpt lat="47.2215" lon="-1.05619">
        <ele>91</ele>
        <time>2025-07-03T01:53:57Z</time>
      </trkpt>
      <trkpt lat="47.22147" lon="-1.05612">
        <ele>91</ele>
        <time>2025-07-03T01:54:04Z</time>
      </trkpt>
      <trkpt lat="47.22143" lon="-1.05593">
        <ele>91</ele>
        <time>2025-07-03T01:54:22Z</time>
      </trkpt>
      <trkpt lat="47.2214" lon="-1.05568">
        <ele>91</ele>
        <time>2025-07-03T01:54:45Z</time>
      </trkpt>
      <trkpt lat="47.22138" lon="-1.05473">
        <ele>90</ele>
        <time>2025-07-03T01:56:11Z</time>
      </trkpt>
      <trkpt lat="47.2213" lon="-1.05269">
        <ele>88</ele>
        <time>2025-07-03T01:59:17Z</time>
      </trkpt>
      <trkpt lat="47.22125" lon="-1.05098">
        <ele>90</ele>
        <time>2025-07-03T02:01:52Z</time>
      </trkpt>
      <trkpt lat="47.22123" lon="-1.05051">
        <ele>91</ele>
        <time>2025-07-03T02:02:34Z</time>
      </trkpt>
      <trkpt lat="47.22123" lon="-1.05026">
        <ele>92</ele>
        <time>2025-07-03T02:02:57Z</time>
      </trkpt>
      <trkpt lat="47.22122" lon="-1.05021">
        <ele>92</ele>
        <time>2025-07-03T02:03:02Z</time>
      </trkpt>
      <trkpt lat="47.22122" lon="-1.04955">
        <ele>92</ele>
        <time>2025-07-03T02:04:02Z</time>
      </trkpt>
      <trkpt lat="47.22123" lon="-1.04891">
        <ele>93</ele>
        <time>2025-07-03T02:05:00Z</time>
      </trkpt>
      <trkpt lat="47.22123" lon="-1.04825">
        <ele>93</ele>
        <time>2025-07-03T02:05:59Z</time>
      </trkpt>
      <trkpt lat="47.2212" lon="-1.04783">
        <ele>92</ele>
        <time>2025-07-03T02:06:38Z</time>
      </trkpt>
      <trkpt lat="47.22115" lon="-1.04683">
        <ele>91</ele>
        <time>2025-07-03T02:08:09Z</time>
      </trkpt>
      <trkpt lat="47.22112" lon="-1.04636">
        <ele>91</ele>
        <time>2025-07-03T02:08:51Z</time>
      </trkpt>
      <trkpt lat="47.22111" lon="-1.04609">
        <ele>91</ele>
        <time>2025-07-03T02:09:16Z</time>
      </trkpt>
      <trkpt lat="47.2211" lon="-1.04563">
        <ele>91</ele>
        <time>2025-07-03T02:09:58Z</time>
      </trkpt>
      <trkpt lat="47.2211" lon="-1.04554">
        <ele>91</ele>
        <time>2025-07-03T02:10:06Z</time>
      </trkpt>
      <trkpt lat="47.2211" lon="-1.04546">
        <ele>91</ele>
        <time>2025-07-03T02:10:13Z</time>
      </trkpt>
      <trkpt lat="47.22112" lon="-1.0453">
        <ele>90</ele>
        <time>2025-07-03T02:10:28Z</time>
      </trkpt>
      <trkpt lat="47.22113" lon="-1.04519">
        <ele>90</ele>
        <time>2025-07-03T02:10:38Z</time>
      </trkpt>
      <trkpt lat="47.22081" lon="-1.04507">
        <ele>89</ele>
        <time>2025-07-03T02:11:22Z</time>
      </trkpt>
      <trkpt lat="47.22077" lon="-1.04506">
        <ele>89</ele>
        <time>2025-07-03T02:11:27Z</time>
      </trkpt>
      <trkpt lat="47.22044" lon="-1.04493">
        <ele>86</ele>
        <time>2025-07-03T02:12:13Z</time>
      </trkpt>
      <trkpt lat="47.22038" lon="-1.04487">
        <ele>86</ele>
        <time>2025-07-03T02:12:23Z</time>
      </trkpt>
      <trkpt lat="47.2203" lon="-1.04461">
        <ele>85</ele>
        <time>2025-07-03T02:12:48Z</time>
      </trkpt>
      <trkpt lat="47.2203" lon="-1.0445">
        <ele>84</ele>
        <time>2025-07-03T02:12:58Z</time>
      </trkpt>
      <trkpt lat="47.22037" lon="-1.04402">
        <ele>84</ele>
        <time>2025-07-03T02:13:43Z</time>
      </trkpt>
      <trkpt lat="47.22035" lon="-1.0439">
        <ele>83</ele>
        <time>2025-07-03T02:13:54Z</time>
      </trkpt>
      <trkpt lat="47.22013" lon="-1.04357">
        <ele>81</ele>
        <time>2025-07-03T02:14:36Z</time>
      </trkpt>
      <trkpt lat="47.22007" lon="-1.04353">
        <ele>80</ele>
        <time>2025-07-03T02:14:45Z</time>
      </trkpt>
      <trkpt lat="47.21998" lon="-1.04357">
        <ele>80</ele>
        <time>2025-07-03T02:14:57Z</time>
      </trkpt>
      <trkpt lat="47.21981" lon="-1.04381">
        <ele>80</ele>
        <time>2025-07-03T02:15:29Z</time>
      </trkpt>
      <trkpt lat="47.21963" lon="-1.0439">
        <ele>79</ele>
        <time>2025-07-03T02:15:54Z</time>
      </trkpt>
      <trkpt lat="47.21956" lon="-1.04384">
        <ele>79</ele>
        <time>2025-07-03T02:16:05Z</time>
      </trkpt>
      <trkpt lat="47.21935" lon="-1.04352">
        <ele>77</ele>
        <time>2025-07-03T02:16:45Z</time>
      </trkpt>
      <trkpt lat="47.21919" lon="-1.04376">
        <ele>77</ele>
        <time>2025-07-03T02:17:16Z</time>
      </trkpt>
      <trkpt lat="47.21905" lon="-1.04396">
        <ele>76</ele>
        <time>2025-07-03T02:17:42Z</time>
      </trkpt>
      <trkpt lat="47.21885" lon="-1.04426">
        <ele>76</ele>
        <time>2025-07-03T02:18:20Z</time>
      </trkpt>
      <trkpt lat="47.21879" lon="-1.04436">
        <ele>76</ele>
        <time>2025-07-03T02:18:32Z</time>
      </trkpt>
      <trkpt lat="47.21844" lon="-1.04488">
        <ele>73</ele>
        <time>2025-07-03T02:19:38Z</time>
      </trkpt>
      <trkpt lat="47.21828" lon="-1.04508">
        <ele>72</ele>
        <time>2025-07-03T02:20:06Z</time>
      </trkpt>
      <trkpt lat="47.21825" lon="-1.04511">
        <ele>71</ele>
        <time>2025-07-03T02:20:11Z</time>
      </trkpt>
      <trkpt lat="47.21829" lon="-1.04531">
        <ele>71</ele>
        <time>2025-07-03T02:20:30Z</time>
      </trkpt>
      <trkpt lat="47.21825" lon="-1.04511">
        <ele>71</ele>
        <time>2025-07-03T02:20:49Z</time>
      </trkpt>
      <trkpt lat="47.21822" lon="-1.04515">
        <ele>71</ele>
        <time>2025-07-03T02:20:54Z</time>
      </trkpt>
      <trkpt lat="47.21798" lon="-1.04505">
        <ele>70</ele>
        <time>2025-07-03T02:21:28Z</time>
      </trkpt>
      <trkpt lat="47.21774" lon="-1.04479">
        <ele>69</ele>
        <time>2025-07-03T02:22:07Z</time>
      </trkpt>
      <trkpt lat="47.21746" lon="-1.04446">
        <ele>69</ele>
        <time>2025-07-03T02:22:55Z</time>
      </trkpt>
      <trkpt lat="47.2172" lon="-1.04433">
        <ele>69</ele>
        <time>2025-07-03T02:23:32Z</time>
      </trkpt>
      <trkpt lat="47.21692" lon="-1.04415">
        <ele>68</ele>
        <time>2025-07-03T02:24:13Z</time>
      </trkpt>
      <trkpt lat="47.21677" lon="-1.04397">
        <ele>68</ele>
        <time>2025-07-03T02:24:38Z</time>
      </trkpt>
      <trkpt lat="47.21667" lon="-1.04379">
        <ele>69</ele>
        <time>2025-07-03T02:25:00Z</time>
      </trkpt>
      <trkpt lat="47.21648" lon="-1.04368">
        <ele>68</ele>
        <time>2025-07-03T02:25:27Z</time>
      </trkpt>
      <trkpt lat="47.21599" lon="-1.04345">
        <ele>66</ele>
        <time>2025-07-03T02:26:35Z</time>
      </trkpt>
      <trkpt lat="47.21603" lon="-1.04332">
        <ele>66</ele>
        <time>2025-07-03T02:26:48Z</time>
      </trkpt>
      <trkpt lat="47.2163" lon="-1.04237">
        <ele>68</ele>
        <time>2025-07-03T02:28:22Z</time>
      </trkpt>
      <trkpt lat="47.21644" lon="-1.04152">
        <ele>67</ele>
        <time>2025-07-03T02:29:41Z</time>
      </trkpt>
      <trkpt lat="47.21652" lon="-1.04066">
        <ele>63</ele>
        <time>2025-07-03T02:31:00Z</time>
      </trkpt>
      <trkpt lat="47.21654" lon="-1.04">
        <ele>57</ele>
        <time>2025-07-03T02:32:00Z</time>
      </trkpt>
      <trkpt lat="47.21662" lon="-1.03972">
        <ele>53</ele>
        <time>2025-07-03T02:32:27Z</time>
      </trkpt>
      <trkpt lat="47.21755" lon="-1.03949">
        <ele>53</ele>
        <time>2025-07-03T02:34:33Z</time>
      </trkpt>
      <trkpt lat="47.21762" lon="-1.03929">
        <ele>50</ele>
        <time>2025-07-03T02:34:53Z</time>
      </trkpt>
      <trkpt lat="47.21772" lon="-1.03918">
        <ele>49</ele>
        <time>2025-07-03T02:35:10Z</time>
      </trkpt>
      <trkpt lat="47.21775" lon="-1.03909">
        <ele>48</ele>
        <time>2025-07-03T02:35:19Z</time>
      </trkpt>
      <trkpt lat="47.21766" lon="-1.03803">
        <ele>42</ele>
        <time>2025-07-03T02:36:56Z</time>
      </trkpt>
      <trkpt lat="47.21794" lon="-1.03784">
        <ele>43</ele>
        <time>2025-07-03T02:37:37Z</time>
      </trkpt>
      <trkpt lat="47.21841" lon="-1.03744">
        <ele>44</ele>
        <time>2025-07-03T02:38:49Z</time>
      </trkpt>
      <trkpt lat="47.21866" lon="-1.03736">
        <ele>43</ele>
        <time>2025-07-03T02:39:24Z</time>
      </trkpt>
      <trkpt lat="47.21883" lon="-1.03727">
        <ele>43</ele>
        <time>2025-07-03T02:39:48Z</time>
      </trkpt>
      <trkpt lat="47.21909" lon="-1.03709">
        <ele>42</ele>
        <time>2025-07-03T02:40:26Z</time>
      </trkpt>
      <trkpt lat="47.21927" lon="-1.03708">
        <ele>44</ele>
        <time>2025-07-03T02:40:50Z</time>
      </trkpt>
      <trkpt lat="47.21934" lon="-1.03727">
        <ele>47</ele>
        <time>2025-07-03T02:41:10Z</time>
      </trkpt>
      <trkpt lat="47.21924" lon="-1.03775">
        <ele>48</ele>
        <time>2025-07-03T02:41:55Z</time>
      </trkpt>
      <trkpt lat="47.21934" lon="-1.03767">
        <ele>50</ele>
        <time>2025-07-03T02:42:10Z</time>
      </trkpt>
      <trkpt lat="47.21958" lon="-1.03755">
        <ele>55</ele>
        <time>2025-07-03T02:42:44Z</time>
      </trkpt>
      <trkpt lat="47.21965" lon="-1.03737">
        <ele>55</ele>
        <time>2025-07-03T02:43:03Z</time>
      </trkpt>
      <trkpt lat="47.21972" lon="-1.03694">
        <ele>54</ele>
        <time>2025-07-03T02:43:43Z</time>
      </trkpt>
      <trkpt lat="47.21975" lon="-1.03658">
        <ele>54</ele>
        <time>2025-07-03T02:44:16Z</time>
      </trkpt>
      <trkpt lat="47.21967" lon="-1.03497">
        <ele>52</ele>
        <time>2025-07-03T02:46:42Z</time>
      </trkpt>
      <trkpt lat="47.21956" lon="-1.03222">
        <ele>46</ele>
        <time>2025-07-03T02:50:52Z</time>
      </trkpt>
      <trkpt lat="47.21951" lon="-1.03177">
        <ele>45</ele>
        <time>2025-07-03T02:51:33Z</time>
      </trkpt>
      <trkpt lat="47.21937" lon="-1.03109">
        <ele>43</ele>
        <time>2025-07-03T02:52:38Z</time>
      </trkpt>
      <trkpt lat="47.21935" lon="-1.03102">
        <ele>43</ele>
        <time>2025-07-03T02:52:45Z</time>
      </trkpt>
      <trkpt lat="47.21931" lon="-1.03071">
        <ele>43</ele>
        <time>2025-07-03T02:53:13Z</time>
      </trkpt>
      <trkpt lat="47.21924" lon="-1.03028">
        <ele>44</ele>
        <time>2025-07-03T02:53:53Z</time>
      </trkpt>
      <trkpt lat="47.21914" lon="-1.0299">
        <ele>44</ele>
        <time>2025-07-03T02:54:30Z</time>
      </trkpt>
      <trkpt lat="47.21901" lon="-1.02964">
        <ele>45</ele>
        <time>2025-07-03T02:54:59Z</time>
      </trkpt>
      <trkpt lat="47.21875" lon="-1.02939">
        <ele>44</ele>
        <time>2025-07-03T02:55:41Z</time>
      </trkpt>
      <trkpt lat="47.21849" lon="-1.02882">
        <ele>43</ele>
        <time>2025-07-03T02:56:43Z</time>
      </trkpt>
      <trkpt lat="47.21835" lon="-1.02837">
        <ele>43</ele>
        <time>2025-07-03T02:57:28Z</time>
      </trkpt>
      <trkpt lat="47.21828" lon="-1.028">
        <ele>43</ele>
        <time>2025-07-03T02:58:03Z</time>
      </trkpt>
      <trkpt lat="47.21819" lon="-1.02776">
        <ele>43</ele>
        <time>2025-07-03T02:58:28Z</time>
      </trkpt>
      <trkpt lat="47.21811" lon="-1.02777">
        <ele>42</ele>
        <time>2025-07-03T02:58:38Z</time>
      </trkpt>
      <trkpt lat="47.21797" lon="-1.02781">
        <ele>42</ele>
        <time>2025-07-03T02:58:57Z</time>
      </trkpt>
      <trkpt lat="47.21769" lon="-1.02798">
        <ele>40</ele>
        <time>2025-07-03T02:59:38Z</time>
      </trkpt>
      <trkpt lat="47.21741" lon="-1.02817">
        <ele>40</ele>
        <time>2025-07-03T03:00:19Z</time>
      </trkpt>
      <trkpt lat="47.21725" lon="-1.02828">
        <ele>41</ele>
        <time>2025-07-03T03:00:43Z</time>
      </trkpt>
      <trkpt lat="47.21706" lon="-1.02839">
        <ele>43</ele>
        <time>2025-07-03T03:01:10Z</time>
      </trkpt>
      <trkpt lat="47.21675" lon="-1.02854">
        <ele>46</ele>
        <time>2025-07-03T03:01:53Z</time>
      </trkpt>
      <trkpt lat="47.21586" lon="-1.0289">
        <ele>53</ele>
        <time>2025-07-03T03:03:56Z</time>
      </trkpt>
      <trkpt lat="47.21558" lon="-1.029">
        <ele>55</ele>
        <time>2025-07-03T03:04:35Z</time>
      </trkpt>
      <trkpt lat="47.21532" lon="-1.02903">
        <ele>57</ele>
        <time>2025-07-03T03:05:10Z</time>
      </trkpt>
      <trkpt lat="47.21514" lon="-1.02902">
        <ele>59</ele>
        <time>2025-07-03T03:05:34Z</time>
      </trkpt>
      <trkpt lat="47.21493" lon="-1.029">
        <ele>60</ele>
        <time>2025-07-03T03:06:02Z</time>
      </trkpt>
      <trkpt lat="47.21457" lon="-1.02894">
        <ele>62</ele>
        <time>2025-07-03T03:06:50Z</time>
      </trkpt>
      <trkpt lat="47.21441" lon="-1.02888">
        <ele>64</ele>
        <time>2025-07-03T03:07:12Z</time>
      </trkpt>
      <trkpt lat="47.21429" lon="-1.02881">
        <ele>65</ele>
        <time>2025-07-03T03:07:29Z</time>
      </trkpt>
      <trkpt lat="47.2142" lon="-1.02873">
        <ele>65</ele>
        <time>2025-07-03T03:07:43Z</time>
      </trkpt>
      <trkpt lat="47.21413" lon="-1.02865">
        <ele>66</ele>
        <time>2025-07-03T03:07:55Z</time>
      </trkpt>
      <trkpt lat="47.21405" lon="-1.02852">
        <ele>67</ele>
        <time>2025-07-03T03:08:11Z</time>
      </trkpt>
      <trkpt lat="47.21359" lon="-1.0277">
        <ele>69</ele>
        <time>2025-07-03T03:09:48Z</time>
      </trkpt>
      <trkpt lat="47.21339" lon="-1.02727">
        <ele>71</ele>
        <time>2025-07-03T03:10:35Z</time>
      </trkpt>
      <trkpt lat="47.21316" lon="-1.02673">
        <ele>73</ele>
        <time>2025-07-03T03:11:33Z</time>
      </trkpt>
      <trkpt lat="47.21197" lon="-1.02365">
        <ele>79</ele>
        <time>2025-07-03T03:16:54Z</time>
      </trkpt>
      <trkpt lat="47.21184" lon="-1.02339">
        <ele>79</ele>
        <time>2025-07-03T03:17:23Z</time>
      </trkpt>
      <trkpt lat="47.2114" lon="-1.02263">
        <ele>79</ele>
        <time>2025-07-03T03:18:54Z</time>
      </trkpt>
      <trkpt lat="47.21128" lon="-1.02236">
        <ele>79</ele>
        <time>2025-07-03T03:19:23Z</time>
      </trkpt>
      <trkpt lat="47.21118" lon="-1.02206">
        <ele>77</ele>
        <time>2025-07-03T03:19:53Z</time>
      </trkpt>
      <trkpt lat="47.21104" lon="-1.0216">
        <ele>75</ele>
        <time>2025-07-03T03:20:39Z</time>
      </trkpt>
      <trkpt lat="47.21094" lon="-1.02113">
        <ele>72</ele>
        <time>2025-07-03T03:21:23Z</time>
      </trkpt>
      <trkpt lat="47.21089" lon="-1.02086">
        <ele>69</ele>
        <time>2025-07-03T03:21:49Z</time>
      </trkpt>
      <trkpt lat="47.21086" lon="-1.02068">
        <ele>67</ele>
        <time>2025-07-03T03:22:06Z</time>
      </trkpt>
      <trkpt lat="47.21086" lon="-1.02055">
        <ele>66</ele>
        <time>2025-07-03T03:22:17Z</time>
      </trkpt>
      <trkpt lat="47.21086" lon="-1.02043">
        <ele>66</ele>
        <time>2025-07-03T03:22:28Z</time>
      </trkpt>
      <trkpt lat="47.21089" lon="-1.02023">
        <ele>65</ele>
        <time>2025-07-03T03:22:47Z</time>
      </trkpt>
      <trkpt lat="47.21093" lon="-1.01999">
        <ele>64</ele>
        <time>2025-07-03T03:23:09Z</time>
      </trkpt>
      <trkpt lat="47.21114" lon="-1.01911">
        <ele>66</ele>
        <time>2025-07-03T03:24:34Z</time>
      </trkpt>
      <trkpt lat="47.21118" lon="-1.01892">
        <ele>67</ele>
        <time>2025-07-03T03:24:52Z</time>
      </trkpt>
      <trkpt lat="47.2112" lon="-1.01878">
        <ele>68</ele>
        <time>2025-07-03T03:25:05Z</time>
      </trkpt>
      <trkpt lat="47.2112" lon="-1.01865">
        <ele>69</ele>
        <time>2025-07-03T03:25:17Z</time>
      </trkpt>
      <trkpt lat="47.21119" lon="-1.01853">
        <ele>69</ele>
        <time>2025-07-03T03:25:28Z</time>
      </trkpt>
      <trkpt lat="47.21113" lon="-1.01832">
        <ele>70</ele>
        <time>2025-07-03T03:25:48Z</time>
      </trkpt>
      <trkpt lat="47.21101" lon="-1.01813">
        <ele>70</ele>
        <time>2025-07-03T03:26:12Z</time>
      </trkpt>
      <trkpt lat="47.2109" lon="-1.01801">
        <ele>70</ele>
        <time>2025-07-03T03:26:30Z</time>
      </trkpt>
      <trkpt lat="47.21076" lon="-1.01784">
        <ele>71</ele>
        <time>2025-07-03T03:26:54Z</time>
      </trkpt>
      <trkpt lat="47.21068" lon="-1.01773">
        <ele>72</ele>
        <time>2025-07-03T03:27:09Z</time>
      </trkpt>
      <trkpt lat="47.21055" lon="-1.01745">
        <ele>75</ele>
        <time>2025-07-03T03:27:40Z</time>
      </trkpt>
      <trkpt lat="47.21048" lon="-1.01727">
        <ele>76</ele>
        <time>2025-07-03T03:27:58Z</time>
      </trkpt>
      <trkpt lat="47.21016" lon="-1.01617">
        <ele>82</ele>
        <time>2025-07-03T03:29:47Z</time>
      </trkpt>
      <trkpt lat="47.20988" lon="-1.01527">
        <ele>84</ele>
        <time>2025-07-03T03:31:17Z</time>
      </trkpt>
      <trkpt lat="47.20957" lon="-1.01449">
        <ele>85</ele>
        <time>2025-07-03T03:32:39Z</time>
      </trkpt>
      <trkpt lat="47.20887" lon="-1.01289">
        <ele>88</ele>
        <time>2025-07-03T03:35:31Z</time>
      </trkpt>
      <trkpt lat="47.20877" lon="-1.01262">
        <ele>90</ele>
        <time>2025-07-03T03:35:59Z</time>
      </trkpt>
      <trkpt lat="47.2087" lon="-1.01235">
        <ele>90</ele>
        <time>2025-07-03T03:36:25Z</time>
      </trkpt>
      <trkpt lat="47.20833" lon="-1.01047">
        <ele>94</ele>
        <time>2025-07-03T03:39:23Z</time>
      </trkpt>
      <trkpt lat="47.20825" lon="-1.01021">
        <ele>95</ele>
        <time>2025-07-03T03:39:48Z</time>
      </trkpt>
      <trkpt lat="47.20806" lon="-1.00968">
        <ele>96</ele>
        <time>2025-07-03T03:40:43Z</time>
      </trkpt>
      <trkpt lat="47.20765" lon="-1.00859">
        <ele>97</ele>
        <time>2025-07-03T03:42:36Z</time>
      </trkpt>
      <trkpt lat="47.20754" lon="-1.00821">
        <ele>98</ele>
        <time>2025-07-03T03:43:13Z</time>
      </trkpt>
      <trkpt lat="47.20746" lon="-1.00788">
        <ele>98</ele>
        <time>2025-07-03T03:43:45Z</time>
      </trkpt>
      <trkpt lat="47.20735" lon="-1.00721">
        <ele>97</ele>
        <time>2025-07-03T03:44:47Z</time>
      </trkpt>
      <trkpt lat="47.20728" lon="-1.00685">
        <ele>97</ele>
        <time>2025-07-03T03:45:21Z</time>
      </trkpt>
      <trkpt lat="47.20716" lon="-1.00622">
        <ele>96</ele>
        <time>2025-07-03T03:46:21Z</time>
      </trkpt>
      <trkpt lat="47.20712" lon="-1.00606">
        <ele>96</ele>
        <time>2025-07-03T03:46:36Z</time>
      </trkpt>
      <trkpt lat="47.20706" lon="-1.0059">
        <ele>96</ele>
        <time>2025-07-03T03:46:53Z</time>
      </trkpt>
      <trkpt lat="47.20699" lon="-1.00576">
        <ele>96</ele>
        <time>2025-07-03T03:47:08Z</time>
      </trkpt>
      <trkpt lat="47.20688" lon="-1.00556">
        <ele>96</ele>
        <time>2025-07-03T03:47:32Z</time>
      </trkpt>
      <trkpt lat="47.20674" lon="-1.00532">
        <ele>96</ele>
        <time>2025-07-03T03:48:00Z</time>
      </trkpt>
      <trkpt lat="47.2064" lon="-1.0048">
        <ele>95</ele>
        <time>2025-07-03T03:49:06Z</time>
      </trkpt>
      <trkpt lat="47.20606" lon="-1.00426">
        <ele>95</ele>
        <time>2025-07-03T03:50:13Z</time>
      </trkpt>
      <trkpt lat="47.20573" lon="-1.00374">
        <ele>93</ele>
        <time>2025-07-03T03:51:17Z</time>
      </trkpt>
      <trkpt lat="47.20564" lon="-1.00363">
        <ele>92</ele>
        <time>2025-07-03T03:51:33Z</time>
      </trkpt>
      <trkpt lat="47.20549" lon="-1.00344">
        <ele>91</ele>
        <time>2025-07-03T03:51:59Z</time>
      </trkpt>
      <trkpt lat="47.20535" lon="-1.0033">
        <ele>91</ele>
        <time>2025-07-03T03:52:22Z</time>
      </trkpt>
      <trkpt lat="47.20477" lon="-1.00283">
        <ele>89</ele>
        <time>2025-07-03T03:53:50Z</time>
      </trkpt>
      <trkpt lat="47.20467" lon="-1.00274">
        <ele>89</ele>
        <time>2025-07-03T03:54:06Z</time>
      </trkpt>
      <trkpt lat="47.20464" lon="-1.00287">
        <ele>89</ele>
        <time>2025-07-03T03:54:18Z</time>
      </trkpt>
      <trkpt lat="47.20467" lon="-1.00274">
        <ele>89</ele>
        <time>2025-07-03T03:54:31Z</time>
      </trkpt>
      <trkpt lat="47.20457" lon="-1.00266">
        <ele>89</ele>
        <time>2025-07-03T03:54:46Z</time>
      </trkpt>
      <trkpt lat="47.20449" lon="-1.00254">
        <ele>89</ele>
        <time>2025-07-03T03:55:01Z</time>
      </trkpt>
      <trkpt lat="47.2044" lon="-1.00237">
        <ele>90</ele>
        <time>2025-07-03T03:55:21Z</time>
      </trkpt>
      <trkpt lat="47.20434" lon="-1.0022">
        <ele>90</ele>
        <time>2025-07-03T03:55:38Z</time>
      </trkpt>
      <trkpt lat="47.20427" lon="-1.00192">
        <ele>90</ele>
        <time>2025-07-03T03:56:05Z</time>
      </trkpt>
      <trkpt lat="47.20383" lon="-0.99999">
        <ele>90</ele>
        <time>2025-07-03T03:59:10Z</time>
      </trkpt>
      <trkpt lat="47.20376" lon="-0.99964">
        <ele>90</ele>
        <time>2025-07-03T03:59:43Z</time>
      </trkpt>
      <trkpt lat="47.20371" lon="-0.99932">
        <ele>89</ele>
        <time>2025-07-03T04:00:12Z</time>
      </trkpt>
      <trkpt lat="47.20365" lon="-0.99889">
        <ele>89</ele>
        <time>2025-07-03T04:00:52Z</time>
      </trkpt>
      <trkpt lat="47.2036" lon="-0.9985">
        <ele>89</ele>
        <time>2025-07-03T04:01:28Z</time>
      </trkpt>
      <trkpt lat="47.20355" lon="-0.99842">
        <ele>89</ele>
        <time>2025-07-03T04:01:38Z</time>
      </trkpt>
      <trkpt lat="47.20352" lon="-0.99818">
        <ele>88</ele>
        <time>2025-07-03T04:02:00Z</time>
      </trkpt>
      <trkpt lat="47.20356" lon="-0.99814">
        <ele>89</ele>
        <time>2025-07-03T04:02:07Z</time>
      </trkpt>
      <trkpt lat="47.20351" lon="-0.99781">
        <ele>88</ele>
        <time>2025-07-03T04:02:37Z</time>
      </trkpt>
      <trkpt lat="47.20345" lon="-0.99737">
        <ele>87</ele>
        <time>2025-07-03T04:03:18Z</time>
      </trkpt>
      <trkpt lat="47.20337" lon="-0.99713">
        <ele>87</ele>
        <time>2025-07-03T04:03:42Z</time>
      </trkpt>
      <trkpt lat="47.20297" lon="-0.99579">
        <ele>85</ele>
        <time>2025-07-03T04:05:55Z</time>
      </trkpt>
      <trkpt lat="47.20279" lon="-0.99536">
        <ele>84</ele>
        <time>2025-07-03T04:06:41Z</time>
      </trkpt>
      <trkpt lat="47.20274" lon="-0.99528">
        <ele>83</ele>
        <time>2025-07-03T04:06:51Z</time>
      </trkpt>
      <trkpt lat="47.20263" lon="-0.99519">
        <ele>83</ele>
        <time>2025-07-03T04:07:07Z</time>
      </trkpt>
      <trkpt lat="47.20248" lon="-0.99508">
        <ele>82</ele>
        <time>2025-07-03T04:07:30Z</time>
      </trkpt>
      <trkpt lat="47.20233" lon="-0.99498">
        <ele>81</ele>
        <time>2025-07-03T04:07:52Z</time>
      </trkpt>
      <trkpt lat="47.20218" lon="-0.99481">
        <ele>80</ele>
        <time>2025-07-03T04:08:17Z</time>
      </trkpt>
      <trkpt lat="47.2017" lon="-0.99385">
        <ele>76</ele>
        <time>2025-07-03T04:10:05Z</time>
      </trkpt>
      <trkpt lat="47.2017" lon="-0.99384">
        <ele>76</ele>
        <time>2025-07-03T04:10:06Z</time>
      </trkpt>
      <trkpt lat="47.20165" lon="-0.99374">
        <ele>75</ele>
        <time>2025-07-03T04:10:17Z</time>
      </trkpt>
      <trkpt lat="47.20163" lon="-0.99376">
        <ele>75</ele>
        <time>2025-07-03T04:10:20Z</time>
      </trkpt>
      <trkpt lat="47.2016" lon="-0.99375">
        <ele>75</ele>
        <time>2025-07-03T04:10:25Z</time>
      </trkpt>
      <trkpt lat="47.20158" lon="-0.99374">
        <ele>75</ele>
        <time>2025-07-03T04:10:27Z</time>
      </trkpt>
      <trkpt lat="47.20154" lon="-0.99378">
        <ele>75</ele>
        <time>2025-07-03T04:10:34Z</time>
      </trkpt>
      <trkpt lat="47.20158" lon="-0.99374">
        <ele>75</ele>
        <time>2025-07-03T04:10:40Z</time>
      </trkpt>
      <trkpt lat="47.20156" lon="-0.99371">
        <ele>75</ele>
        <time>2025-07-03T04:10:44Z</time>
      </trkpt>
      <trkpt lat="47.20155" lon="-0.99367">
        <ele>75</ele>
        <time>2025-07-03T04:10:48Z</time>
      </trkpt>
      <trkpt lat="47.20155" lon="-0.99364">
        <ele>75</ele>
        <time>2025-07-03T04:10:51Z</time>
      </trkpt>
      <trkpt lat="47.20156" lon="-0.9936">
        <ele>75</ele>
        <time>2025-07-03T04:10:55Z</time>
      </trkpt>
      <trkpt lat="47.20151" lon="-0.99354">
        <ele>75</ele>
        <time>2025-07-03T04:11:03Z</time>
      </trkpt>
      <trkpt lat="47.2014" lon="-0.99336">
        <ele>76</ele>
        <time>2025-07-03T04:11:25Z</time>
      </trkpt>
      <trkpt lat="47.20116" lon="-0.99296">
        <ele>77</ele>
        <time>2025-07-03T04:12:13Z</time>
      </trkpt>
      <trkpt lat="47.20092" lon="-0.99251">
        <ele>79</ele>
        <time>2025-07-03T04:13:05Z</time>
      </trkpt>
      <trkpt lat="47.20088" lon="-0.99256">
        <ele>79</ele>
        <time>2025-07-03T04:13:12Z</time>
      </trkpt>
      <trkpt lat="47.20078" lon="-0.99268">
        <ele>78</ele>
        <time>2025-07-03T04:13:30Z</time>
      </trkpt>
      <trkpt lat="47.20066" lon="-0.99294">
        <ele>76</ele>
        <time>2025-07-03T04:13:58Z</time>
      </trkpt>
      <trkpt lat="47.20063" lon="-0.99292">
        <ele>76</ele>
        <time>2025-07-03T04:14:02Z</time>
      </trkpt>
      <trkpt lat="47.20013" lon="-0.99306">
        <ele>73</ele>
        <time>2025-07-03T04:15:10Z</time>
      </trkpt>
      <trkpt lat="47.20006" lon="-0.99303">
        <ele>73</ele>
        <time>2025-07-03T04:15:20Z</time>
      </trkpt>
      <trkpt lat="47.20002" lon="-0.99301">
        <ele>73</ele>
        <time>2025-07-03T04:15:26Z</time>
      </trkpt>
      <trkpt lat="47.19993" lon="-0.99293">
        <ele>72</ele>
        <time>2025-07-03T04:15:40Z</time>
      </trkpt>
      <trkpt lat="47.19983" lon="-0.99286">
        <ele>71</ele>
        <time>2025-07-03T04:15:55Z</time>
      </trkpt>
      <trkpt lat="47.19967" lon="-0.99279">
        <ele>69</ele>
        <time>2025-07-03T04:16:17Z</time>
      </trkpt>
      <trkpt lat="47.19956" lon="-0.99273">
        <ele>68</ele>
        <time>2025-07-03T04:16:32Z</time>
      </trkpt>
      <trkpt lat="47.19942" lon="-0.9927">
        <ele>67</ele>
        <time>2025-07-03T04:16:51Z</time>
      </trkpt>
      <trkpt lat="47.19933" lon="-0.99278">
        <ele>66</ele>
        <time>2025-07-03T04:17:05Z</time>
      </trkpt>
      <trkpt lat="47.19919" lon="-0.99303">
        <ele>65</ele>
        <time>2025-07-03T04:17:35Z</time>
      </trkpt>
      <trkpt lat="47.19867" lon="-0.99404">
        <ele>59</ele>
        <time>2025-07-03T04:19:30Z</time>
      </trkpt>
      <trkpt lat="47.19847" lon="-0.99446">
        <ele>56</ele>
        <time>2025-07-03T04:20:16Z</time>
      </trkpt>
      <trkpt lat="47.19843" lon="-0.99452">
        <ele>56</ele>
        <time>2025-07-03T04:20:24Z</time>
      </trkpt>
      <trkpt lat="47.1983" lon="-0.99439">
        <ele>55</ele>
        <time>2025-07-03T04:20:45Z</time>
      </trkpt>
      <trkpt lat="47.19822" lon="-0.99453">
        <ele>54</ele>
        <time>2025-07-03T04:21:01Z</time>
      </trkpt>
    </trkseg>
  </trk>
</gpx>